C6056 KSAN-
Flight info
| Callsign | C6056 |
|---|---|
| Flight time | N/A |
| Altitude | VFR |
| Route | |
| Aircraft | MH60/L-VGD/C |
Departure
| Time | 2026-05-03 21:41 |
|---|---|
| Airport | San Diego International Airport (KSAN) |
Arrival
| Time | N/A |
|---|---|
| Airport | - |
| Time | Latitude | Longitude | Altitude | Speed | Heading |
|---|---|---|---|---|---|
| 2026-05-03 21:36 | 32.72657 | -117.18132 | 27 ft | 0 kts | 291° |
| 2026-05-03 21:40 | 32.72645 | -117.18131 | 21 ft | 12 kts | 136° |
| 2026-05-03 21:40 | 32.72518 | -117.18134 | 91 ft | 30 kts | 194° |
| 2026-05-03 21:40 | 32.72254 | -117.18226 | 215 ft | 49 kts | 199° |
| 2026-05-03 21:41 | 32.71860 | -117.18387 | 360 ft | 65 kts | 205° |
| 2026-05-03 21:41 | 32.71398 | -117.18419 | 528 ft | 67 kts | 194° |
| 2026-05-03 21:41 | 32.70963 | -117.18347 | 725 ft | 57 kts | 192° |
| 2026-05-03 21:41 | 32.70593 | -117.18434 | 876 ft | 55 kts | 203° |
| 2026-05-03 21:42 | 32.70134 | -117.18656 | 914 ft | 92 kts | 208° |
| 2026-05-03 21:42 | 32.69423 | -117.19027 | 854 ft | 130 kts | 200° |
| 2026-05-03 21:42 | 32.68573 | -117.19391 | 867 ft | 128 kts | 201° |
| 2026-05-03 21:42 | 32.67698 | -117.19649 | 947 ft | 133 kts | 196° |
| 2026-05-03 21:43 | 32.66765 | -117.19892 | 813 ft | 140 kts | 196° |
| 2026-05-03 21:43 | 32.65846 | -117.20187 | 706 ft | 139 kts | 200° |
| 2026-05-03 21:43 | 32.64943 | -117.20514 | 703 ft | 132 kts | 202° |
| 2026-05-03 21:43 | 32.64080 | -117.20911 | 700 ft | 135 kts | 207° |
| 2026-05-03 21:44 | 32.63155 | -117.21367 | 564 ft | 138 kts | 202° |
| 2026-05-03 21:44 | 32.62255 | -117.21600 | 426 ft | 138 kts | 196° |
| 2026-05-03 21:44 | 32.61339 | -117.21836 | 482 ft | 133 kts | 197° |
| 2026-05-03 21:44 | 32.60460 | -117.22066 | 631 ft | 126 kts | 200° |
| 2026-05-03 21:45 | 32.59723 | -117.22624 | 678 ft | 125 kts | 243° |
| 2026-05-03 21:45 | 32.59474 | -117.23559 | 696 ft | 126 kts | 272° |
| 2026-05-03 21:45 | 32.59568 | -117.24608 | 641 ft | 128 kts | 283° |
| 2026-05-03 21:45 | 32.59969 | -117.25542 | 653 ft | 127 kts | 299° |
| 2026-05-03 21:46 | 32.60389 | -117.26457 | 659 ft | 126 kts | 296° |
| 2026-05-03 21:46 | 32.60761 | -117.27395 | 664 ft | 126 kts | 290° |
| 2026-05-03 21:46 | 32.61068 | -117.28368 | 666 ft | 127 kts | 290° |
| 2026-05-03 21:46 | 32.61360 | -117.29374 | 661 ft | 129 kts | 287° |
| 2026-05-03 21:47 | 32.61619 | -117.30374 | 671 ft | 126 kts | 288° |
| 2026-05-03 21:47 | 32.61904 | -117.31363 | 665 ft | 128 kts | 288° |
| 2026-05-03 21:47 | 32.62185 | -117.32359 | 670 ft | 127 kts | 288° |
| 2026-05-03 21:47 | 32.62450 | -117.33354 | 672 ft | 125 kts | 288° |
| 2026-05-03 21:48 | 32.62722 | -117.34349 | 672 ft | 128 kts | 288° |
| 2026-05-03 21:48 | 32.62988 | -117.35322 | 673 ft | 127 kts | 288° |
| 2026-05-03 21:48 | 32.63332 | -117.36303 | 669 ft | 127 kts | 300° |
| 2026-05-03 21:48 | 32.63820 | -117.37187 | 676 ft | 127 kts | 303° |
| 2026-05-03 21:49 | 32.64315 | -117.38065 | 672 ft | 127 kts | 303° |
| 2026-05-03 21:49 | 32.64915 | -117.38838 | 672 ft | 133 kts | 314° |
| 2026-05-03 21:49 | 32.65562 | -117.39578 | 668 ft | 132 kts | 314° |
| 2026-05-03 21:49 | 32.66201 | -117.40330 | 669 ft | 129 kts | 314° |
| 2026-05-03 21:50 | 32.66835 | -117.41082 | 670 ft | 127 kts | 314° |
| 2026-05-03 21:50 | 32.67515 | -117.41746 | 666 ft | 128 kts | 323° |
| 2026-05-03 21:50 | 32.68342 | -117.42136 | 670 ft | 131 kts | 339° |
| 2026-05-03 21:50 | 32.69216 | -117.42433 | 669 ft | 131 kts | 341° |
| 2026-05-03 21:51 | 32.70101 | -117.42717 | 664 ft | 132 kts | 341° |
| 2026-05-03 21:51 | 32.70980 | -117.43009 | 664 ft | 131 kts | 341° |
| 2026-05-03 21:51 | 32.71852 | -117.43308 | 663 ft | 130 kts | 341° |
| 2026-05-03 21:51 | 32.72725 | -117.43608 | 665 ft | 130 kts | 341° |
| 2026-05-03 21:52 | 32.73618 | -117.43821 | 665 ft | 133 kts | 350° |
| 2026-05-03 21:52 | 32.74556 | -117.43763 | 667 ft | 133 kts | 359° |
| 2026-05-03 21:52 | 32.75487 | -117.43670 | 666 ft | 136 kts | 2° |
| 2026-05-03 21:52 | 32.76418 | -117.43574 | 669 ft | 135 kts | 2° |
| 2026-05-03 21:53 | 32.77355 | -117.43482 | 670 ft | 134 kts | 2° |
| 2026-05-03 21:53 | 32.78273 | -117.43406 | 670 ft | 133 kts | 2° |
| 2026-05-03 21:53 | 32.79200 | -117.43322 | 669 ft | 133 kts | 2° |
| 2026-05-03 21:53 | 32.80127 | -117.43221 | 670 ft | 135 kts | 2° |
| 2026-05-03 21:54 | 32.81057 | -117.43121 | 668 ft | 136 kts | 2° |
| 2026-05-03 21:54 | 32.81988 | -117.43022 | 668 ft | 134 kts | 2° |
| 2026-05-03 21:54 | 32.82906 | -117.42920 | 678 ft | 132 kts | 2° |
| 2026-05-03 21:54 | 32.83827 | -117.42818 | 678 ft | 133 kts | 2° |
| 2026-05-03 21:55 | 32.84754 | -117.42728 | 678 ft | 133 kts | 2° |
| 2026-05-03 21:55 | 32.85674 | -117.42631 | 681 ft | 133 kts | 2° |
| 2026-05-03 21:55 | 32.86611 | -117.42550 | 675 ft | 133 kts | 2° |
| 2026-05-03 21:55 | 32.87547 | -117.42467 | 674 ft | 134 kts | 2° |
| 2026-05-03 21:56 | 32.88478 | -117.42368 | 671 ft | 134 kts | 2° |
| 2026-05-03 21:56 | 32.89411 | -117.42268 | 671 ft | 133 kts | 2° |
| 2026-05-03 21:56 | 32.90333 | -117.42171 | 674 ft | 133 kts | 2° |
| 2026-05-03 21:56 | 32.91256 | -117.42072 | 673 ft | 132 kts | 2° |
| 2026-05-03 21:57 | 32.92176 | -117.41970 | 673 ft | 129 kts | 2° |
| 2026-05-03 21:57 | 32.93089 | -117.41880 | 669 ft | 131 kts | 2° |
| 2026-05-03 21:57 | 32.94014 | -117.41799 | 667 ft | 131 kts | 2° |
| 2026-05-03 21:57 | 32.94927 | -117.41731 | 668 ft | 133 kts | 353° |
| 2026-05-03 21:58 | 32.95818 | -117.41887 | 670 ft | 127 kts | 335° |
| 2026-05-03 21:58 | 32.96659 | -117.42281 | 666 ft | 129 kts | 335° |
| 2026-05-03 21:58 | 32.97507 | -117.42722 | 663 ft | 131 kts | 325° |
| 2026-05-03 21:58 | 32.98229 | -117.43351 | 664 ft | 129 kts | 316° |
| 2026-05-03 21:59 | 32.98896 | -117.44053 | 666 ft | 126 kts | 316° |
| 2026-05-03 21:59 | 32.99558 | -117.44755 | 665 ft | 130 kts | 316° |
| 2026-05-03 21:59 | 33.00221 | -117.45478 | 662 ft | 130 kts | 316° |
| 2026-05-03 21:59 | 33.00873 | -117.46166 | 658 ft | 127 kts | 316° |
| 2026-05-03 22:00 | 33.01536 | -117.46873 | 663 ft | 130 kts | 316° |
| 2026-05-03 22:00 | 33.02186 | -117.47584 | 657 ft | 129 kts | 316° |
| 2026-05-03 22:00 | 33.02845 | -117.48294 | 660 ft | 128 kts | 316° |
| 2026-05-03 22:00 | 33.03505 | -117.49001 | 660 ft | 127 kts | 316° |
| 2026-05-03 22:01 | 33.04159 | -117.49718 | 654 ft | 129 kts | 316° |
| 2026-05-03 22:01 | 33.04813 | -117.50430 | 659 ft | 130 kts | 316° |
| 2026-05-03 22:01 | 33.05475 | -117.51160 | 653 ft | 129 kts | 316° |
| 2026-05-03 22:01 | 33.06139 | -117.51873 | 656 ft | 128 kts | 316° |
| 2026-05-03 22:02 | 33.06809 | -117.52578 | 657 ft | 128 kts | 316° |
| 2026-05-03 22:02 | 33.07478 | -117.53272 | 657 ft | 129 kts | 316° |
| 2026-05-03 22:02 | 33.08145 | -117.53984 | 655 ft | 129 kts | 316° |
| 2026-05-03 22:02 | 33.08818 | -117.54697 | 653 ft | 130 kts | 316° |
| 2026-05-03 22:03 | 33.09484 | -117.55440 | 657 ft | 131 kts | 316° |
| 2026-05-03 22:03 | 33.10152 | -117.56158 | 657 ft | 128 kts | 316° |
| 2026-05-03 22:03 | 33.10817 | -117.56871 | 655 ft | 130 kts | 316° |
| 2026-05-03 22:03 | 33.11486 | -117.57591 | 655 ft | 131 kts | 316° |
| 2026-05-03 22:04 | 33.12152 | -117.58305 | 650 ft | 130 kts | 316° |
| 2026-05-03 22:04 | 33.12825 | -117.59015 | 652 ft | 129 kts | 316° |
| 2026-05-03 22:04 | 33.13488 | -117.59720 | 649 ft | 131 kts | 316° |
| 2026-05-03 22:04 | 33.14160 | -117.60438 | 655 ft | 132 kts | 316° |
| 2026-05-03 22:05 | 33.14828 | -117.61183 | 651 ft | 130 kts | 316° |
| 2026-05-03 22:05 | 33.15480 | -117.61883 | 649 ft | 126 kts | 316° |
| 2026-05-03 22:05 | 33.16151 | -117.62605 | 656 ft | 133 kts | 316° |
| 2026-05-03 22:05 | 33.16819 | -117.63338 | 650 ft | 130 kts | 316° |
| 2026-05-03 22:06 | 33.17472 | -117.64070 | 653 ft | 130 kts | 316° |
| 2026-05-03 22:06 | 33.18130 | -117.64800 | 651 ft | 129 kts | 316° |
| 2026-05-03 22:06 | 33.18794 | -117.65517 | 649 ft | 128 kts | 317° |
| 2026-05-03 22:06 | 33.19450 | -117.66203 | 652 ft | 127 kts | 317° |
| 2026-05-03 22:07 | 33.20129 | -117.66903 | 650 ft | 129 kts | 317° |
| 2026-05-03 22:07 | 33.20807 | -117.67607 | 651 ft | 130 kts | 317° |
| 2026-05-03 22:07 | 33.21482 | -117.68341 | 654 ft | 131 kts | 317° |
| 2026-05-03 22:07 | 33.22157 | -117.69060 | 650 ft | 128 kts | 317° |
| 2026-05-03 22:08 | 33.22827 | -117.69784 | 653 ft | 129 kts | 317° |
| 2026-05-03 22:08 | 33.23497 | -117.70492 | 650 ft | 134 kts | 317° |
| 2026-05-03 22:08 | 33.24177 | -117.71214 | 648 ft | 129 kts | 317° |
| 2026-05-03 22:08 | 33.24854 | -117.71930 | 652 ft | 130 kts | 317° |
| 2026-05-03 22:09 | 33.25528 | -117.72648 | 649 ft | 132 kts | 317° |
| 2026-05-03 22:09 | 33.26212 | -117.73356 | 649 ft | 133 kts | 317° |
| 2026-05-03 22:09 | 33.26906 | -117.74062 | 649 ft | 132 kts | 317° |
| 2026-05-03 22:10 | 33.28301 | -117.75470 | 652 ft | 130 kts | 317° |
| 2026-05-03 22:10 | 33.29006 | -117.76182 | 649 ft | 132 kts | 317° |
| 2026-05-03 22:10 | 33.29697 | -117.76904 | 650 ft | 133 kts | 317° |
| 2026-05-03 22:10 | 33.30378 | -117.77630 | 647 ft | 135 kts | 317° |
| 2026-05-03 22:11 | 33.31062 | -117.78360 | 653 ft | 130 kts | 317° |
| 2026-05-03 22:11 | 33.31751 | -117.79073 | 650 ft | 129 kts | 317° |
| 2026-05-03 22:11 | 33.32431 | -117.79790 | 649 ft | 130 kts | 317° |
| 2026-05-03 22:11 | 33.33116 | -117.80514 | 650 ft | 134 kts | 317° |
| 2026-05-03 22:12 | 33.33798 | -117.81248 | 650 ft | 134 kts | 317° |
| 2026-05-03 22:12 | 33.34493 | -117.81977 | 649 ft | 131 kts | 317° |
| 2026-05-03 22:12 | 33.35196 | -117.82690 | 648 ft | 132 kts | 317° |
| 2026-05-03 22:12 | 33.35902 | -117.83404 | 651 ft | 131 kts | 317° |
| 2026-05-03 22:13 | 33.36613 | -117.84128 | 654 ft | 133 kts | 317° |
| 2026-05-03 22:13 | 33.37317 | -117.84853 | 656 ft | 133 kts | 317° |
| 2026-05-03 22:13 | 33.38018 | -117.85570 | 651 ft | 131 kts | 317° |
| 2026-05-03 22:13 | 33.38723 | -117.86282 | 654 ft | 135 kts | 317° |
| 2026-05-03 22:14 | 33.39422 | -117.86976 | 651 ft | 134 kts | 317° |
| 2026-05-03 22:14 | 33.40125 | -117.87691 | 657 ft | 133 kts | 317° |
| 2026-05-03 22:14 | 33.40830 | -117.88413 | 655 ft | 134 kts | 317° |
| 2026-05-03 22:14 | 33.41542 | -117.89131 | 651 ft | 133 kts | 321° |
| 2026-05-03 22:15 | 33.42294 | -117.89798 | 655 ft | 140 kts | 321° |
| 2026-05-03 22:15 | 33.43055 | -117.90493 | 654 ft | 139 kts | 321° |
| 2026-05-03 22:15 | 33.43827 | -117.91178 | 656 ft | 139 kts | 321° |
| 2026-05-03 22:15 | 33.44598 | -117.91865 | 657 ft | 138 kts | 321° |
| 2026-05-03 22:16 | 33.45357 | -117.92554 | 656 ft | 136 kts | 321° |
| 2026-05-03 22:16 | 33.46103 | -117.93247 | 659 ft | 137 kts | 321° |
| 2026-05-03 22:16 | 33.46866 | -117.93947 | 658 ft | 140 kts | 321° |
| 2026-05-03 22:16 | 33.47631 | -117.94647 | 659 ft | 136 kts | 321° |
| 2026-05-03 22:17 | 33.48394 | -117.95352 | 659 ft | 137 kts | 321° |
| 2026-05-03 22:17 | 33.49163 | -117.96052 | 658 ft | 140 kts | 321° |
| 2026-05-03 22:17 | 33.49931 | -117.96760 | 658 ft | 142 kts | 321° |
| 2026-05-03 22:17 | 33.50707 | -117.97449 | 658 ft | 140 kts | 321° |
| 2026-05-03 22:18 | 33.51489 | -117.98136 | 656 ft | 140 kts | 321° |
| 2026-05-03 22:18 | 33.52259 | -117.98810 | 651 ft | 143 kts | 321° |
| 2026-05-03 22:18 | 33.53034 | -117.99495 | 654 ft | 140 kts | 321° |
| 2026-05-03 22:18 | 33.53793 | -118.00192 | 659 ft | 135 kts | 321° |
| 2026-05-03 22:19 | 33.54481 | -118.01070 | 650 ft | 155 kts | 297° |
| 2026-05-03 22:19 | 33.54952 | -118.02077 | 665 ft | 133 kts | 291° |
| 2026-05-03 22:19 | 33.55308 | -118.03106 | 662 ft | 132 kts | 291° |
| 2026-05-03 22:19 | 33.55669 | -118.04129 | 660 ft | 134 kts | 291° |
| 2026-05-03 22:20 | 33.56047 | -118.05162 | 657 ft | 136 kts | 291° |
| 2026-05-03 22:20 | 33.56412 | -118.06203 | 658 ft | 135 kts | 288° |
| 2026-05-03 22:20 | 33.56736 | -118.07236 | 654 ft | 133 kts | 288° |
| 2026-05-03 22:20 | 33.57050 | -118.08254 | 655 ft | 130 kts | 289° |
| 2026-05-03 22:21 | 33.57347 | -118.09275 | 653 ft | 129 kts | 288° |
| 2026-05-03 22:21 | 33.57644 | -118.10303 | 654 ft | 130 kts | 289° |
| 2026-05-03 22:21 | 33.57944 | -118.11329 | 654 ft | 131 kts | 289° |
| 2026-05-03 22:21 | 33.58252 | -118.12361 | 652 ft | 131 kts | 289° |
| 2026-05-03 22:22 | 33.58560 | -118.13384 | 654 ft | 129 kts | 288° |
| 2026-05-03 22:22 | 33.58867 | -118.14384 | 653 ft | 126 kts | 289° |
| 2026-05-03 22:22 | 33.59171 | -118.15384 | 654 ft | 127 kts | 289° |
| 2026-05-03 22:22 | 33.59479 | -118.16388 | 653 ft | 129 kts | 289° |
| 2026-05-03 22:23 | 33.59805 | -118.17413 | 653 ft | 129 kts | 288° |
| 2026-05-03 22:23 | 33.60141 | -118.18393 | 655 ft | 129 kts | 289° |
| 2026-05-03 22:23 | 33.60482 | -118.19390 | 656 ft | 129 kts | 289° |
| 2026-05-03 22:23 | 33.60811 | -118.20391 | 657 ft | 128 kts | 289° |
| 2026-05-03 22:24 | 33.61144 | -118.21366 | 657 ft | 129 kts | 289° |
| 2026-05-03 22:24 | 33.61458 | -118.22352 | 655 ft | 128 kts | 289° |
| 2026-05-03 22:24 | 33.61767 | -118.23325 | 658 ft | 123 kts | 289° |
| 2026-05-03 22:24 | 33.62126 | -118.24294 | 639 ft | 138 kts | 295° |
| 2026-05-03 22:25 | 33.62817 | -118.25202 | 653 ft | 147 kts | 320° |
| 2026-05-03 22:25 | 33.63548 | -118.25849 | 654 ft | 132 kts | 322° |
| 2026-05-03 22:25 | 33.64303 | -118.26458 | 655 ft | 131 kts | 322° |
| 2026-05-03 22:25 | 33.65071 | -118.27059 | 657 ft | 133 kts | 322° |
| 2026-05-03 22:26 | 33.65847 | -118.27688 | 652 ft | 137 kts | 322° |
| 2026-05-03 22:26 | 33.66626 | -118.28302 | 657 ft | 128 kts | 322° |
| 2026-05-03 22:26 | 33.67396 | -118.28921 | 652 ft | 137 kts | 322° |
| 2026-05-03 22:26 | 33.68173 | -118.29558 | 655 ft | 134 kts | 322° |
| 2026-05-03 22:27 | 33.68955 | -118.30176 | 648 ft | 134 kts | 322° |
| 2026-05-03 22:27 | 33.69730 | -118.30831 | 644 ft | 138 kts | 322° |
| 2026-05-03 22:27 | 33.70510 | -118.31456 | 650 ft | 135 kts | 322° |
| 2026-05-03 22:27 | 33.71211 | -118.32160 | 649 ft | 128 kts | 295° |
| 2026-05-03 22:28 | 33.71592 | -118.33136 | 656 ft | 130 kts | 288° |
| 2026-05-03 22:28 | 33.71897 | -118.34165 | 651 ft | 131 kts | 288° |
| 2026-05-03 22:28 | 33.72205 | -118.35186 | 653 ft | 128 kts | 288° |
| 2026-05-03 22:28 | 33.72524 | -118.36212 | 651 ft | 131 kts | 288° |
| 2026-05-03 22:29 | 33.72727 | -118.37244 | 657 ft | 123 kts | 278° |
| 2026-05-03 22:29 | 33.72879 | -118.38276 | 653 ft | 126 kts | 279° |
| 2026-05-03 22:29 | 33.73022 | -118.39331 | 652 ft | 128 kts | 279° |
| 2026-05-03 22:29 | 33.73160 | -118.40386 | 651 ft | 128 kts | 279° |
| 2026-05-03 22:30 | 33.73299 | -118.41415 | 654 ft | 125 kts | 279° |
| 2026-05-03 22:30 | 33.73442 | -118.42463 | 653 ft | 128 kts | 279° |
| 2026-05-03 22:30 | 33.73579 | -118.43509 | 659 ft | 125 kts | 279° |
| 2026-05-03 22:30 | 33.73712 | -118.44546 | 661 ft | 125 kts | 279° |
| 2026-05-03 22:31 | 33.73849 | -118.45588 | 656 ft | 127 kts | 279° |
| 2026-05-03 22:31 | 33.73984 | -118.46626 | 655 ft | 124 kts | 279° |
| 2026-05-03 22:31 | 33.74110 | -118.47641 | 656 ft | 123 kts | 279° |
| 2026-05-03 22:31 | 33.74245 | -118.48662 | 657 ft | 127 kts | 279° |
| 2026-05-03 22:32 | 33.74395 | -118.49643 | 653 ft | 120 kts | 279° |
| 2026-05-03 22:32 | 33.74545 | -118.50658 | 652 ft | 125 kts | 278° |
| 2026-05-03 22:32 | 33.74707 | -118.51664 | 652 ft | 124 kts | 279° |
| 2026-05-03 22:32 | 33.74868 | -118.52665 | 652 ft | 125 kts | 279° |
| 2026-05-03 22:33 | 33.75017 | -118.53703 | 656 ft | 128 kts | 279° |
| 2026-05-03 22:33 | 33.75173 | -118.54756 | 658 ft | 123 kts | 279° |
| 2026-05-03 22:33 | 33.75321 | -118.55766 | 661 ft | 122 kts | 279° |
| 2026-05-03 22:33 | 33.75453 | -118.56802 | 658 ft | 125 kts | 279° |
| 2026-05-03 22:34 | 33.75577 | -118.57850 | 657 ft | 129 kts | 278° |
| 2026-05-03 22:34 | 33.75730 | -118.58896 | 655 ft | 128 kts | 281° |
| 2026-05-03 22:34 | 33.76182 | -118.59787 | 660 ft | 125 kts | 321° |
| 2026-05-03 22:34 | 33.76962 | -118.60321 | 656 ft | 127 kts | 334° |
| 2026-05-03 22:35 | 33.77818 | -118.60712 | 663 ft | 134 kts | 334° |
| 2026-05-03 22:35 | 33.78684 | -118.61112 | 657 ft | 135 kts | 335° |
| 2026-05-03 22:35 | 33.79537 | -118.61494 | 657 ft | 132 kts | 335° |
| 2026-05-03 22:35 | 33.80415 | -118.61888 | 658 ft | 135 kts | 334° |
| 2026-05-03 22:36 | 33.81289 | -118.62237 | 653 ft | 132 kts | 335° |
| 2026-05-03 22:36 | 33.82148 | -118.62610 | 659 ft | 131 kts | 335° |
| 2026-05-03 22:36 | 33.83008 | -118.63003 | 659 ft | 132 kts | 334° |
| 2026-05-03 22:36 | 33.83877 | -118.63387 | 656 ft | 133 kts | 335° |
| 2026-05-03 22:37 | 33.84740 | -118.63766 | 657 ft | 138 kts | 334° |
| 2026-05-03 22:37 | 33.85627 | -118.64252 | 663 ft | 128 kts | 330° |
| 2026-05-03 22:37 | 33.86465 | -118.64705 | 658 ft | 134 kts | 330° |
| 2026-05-03 22:37 | 33.87304 | -118.65157 | 654 ft | 131 kts | 330° |
| 2026-05-03 22:38 | 33.88139 | -118.65617 | 662 ft | 131 kts | 330° |
| 2026-05-03 22:38 | 33.88964 | -118.66069 | 662 ft | 131 kts | 330° |
| 2026-05-03 22:38 | 33.89784 | -118.66549 | 654 ft | 127 kts | 330° |
| 2026-05-03 22:38 | 33.90595 | -118.67040 | 659 ft | 131 kts | 330° |
| 2026-05-03 22:39 | 33.91417 | -118.67528 | 661 ft | 132 kts | 330° |
| 2026-05-03 22:39 | 33.92234 | -118.68052 | 655 ft | 132 kts | 327° |
| 2026-05-03 22:39 | 33.93033 | -118.68593 | 662 ft | 135 kts | 327° |
| 2026-05-03 22:39 | 33.93848 | -118.69133 | 655 ft | 134 kts | 327° |
| 2026-05-03 22:40 | 33.94630 | -118.69690 | 656 ft | 127 kts | 327° |
| 2026-05-03 22:40 | 33.95429 | -118.70216 | 660 ft | 131 kts | 327° |
| 2026-05-03 22:40 | 33.96240 | -118.70769 | 661 ft | 130 kts | 327° |
| 2026-05-03 22:40 | 33.97055 | -118.71337 | 654 ft | 138 kts | 327° |
| 2026-05-03 22:41 | 33.97851 | -118.71948 | 667 ft | 134 kts | 322° |
| 2026-05-03 22:41 | 33.98589 | -118.72598 | 666 ft | 131 kts | 320° |
| 2026-05-03 22:41 | 33.99331 | -118.73255 | 656 ft | 131 kts | 320° |
| 2026-05-03 22:41 | 34.00056 | -118.73903 | 654 ft | 131 kts | 319° |
| 2026-05-03 22:42 | 34.00803 | -118.74575 | 656 ft | 133 kts | 319° |
| 2026-05-03 22:42 | 34.01525 | -118.75263 | 635 ft | 142 kts | 303° |
| 2026-05-03 22:42 | 34.02147 | -118.76314 | 636 ft | 161 kts | 288° |
| 2026-05-03 22:42 | 34.02453 | -118.77447 | 630 ft | 134 kts | 262° |
| 2026-05-03 22:43 | 34.02347 | -118.78532 | 653 ft | 124 kts | 274° |
| 2026-05-03 22:43 | 34.02699 | -118.79468 | 654 ft | 138 kts | 278° |
| 2026-05-03 22:43 | 34.02692 | -118.80236 | 658 ft | 103 kts | 221° |
| 2026-05-03 22:43 | 34.02084 | -118.80932 | 656 ft | 128 kts | 224° |
| 2026-05-03 22:44 | 34.01424 | -118.81620 | 653 ft | 124 kts | 224° |
| 2026-05-03 22:44 | 34.00773 | -118.82314 | 651 ft | 126 kts | 224° |
| 2026-05-03 22:44 | 34.00272 | -118.83209 | 658 ft | 119 kts | 245° |
| 2026-05-03 22:44 | 33.99908 | -118.84127 | 651 ft | 120 kts | 245° |
| 2026-05-03 22:45 | 33.99538 | -118.85069 | 646 ft | 123 kts | 245° |
| 2026-05-03 22:45 | 33.99181 | -118.86006 | 642 ft | 126 kts | 245° |
| 2026-05-03 22:45 | 33.98819 | -118.86929 | 641 ft | 125 kts | 245° |
| 2026-05-03 22:45 | 33.98433 | -118.87849 | 626 ft | 125 kts | 239° |
| 2026-05-03 22:46 | 33.97970 | -118.88724 | 636 ft | 127 kts | 239° |
| 2026-05-03 22:46 | 33.97507 | -118.89587 | 642 ft | 127 kts | 239° |
| 2026-05-03 22:46 | 33.97028 | -118.90463 | 636 ft | 123 kts | 239° |
| 2026-05-03 22:46 | 33.96556 | -118.91351 | 640 ft | 126 kts | 239° |
| 2026-05-03 22:47 | 33.96073 | -118.92260 | 642 ft | 126 kts | 239° |
| 2026-05-03 22:47 | 33.95602 | -118.93159 | 640 ft | 125 kts | 239° |
| 2026-05-03 22:47 | 33.95150 | -118.94044 | 638 ft | 126 kts | 239° |
| 2026-05-03 22:47 | 33.94708 | -118.94907 | 641 ft | 125 kts | 239° |
| 2026-05-03 22:48 | 33.94246 | -118.95814 | 640 ft | 121 kts | 239° |
| 2026-05-03 22:48 | 33.93785 | -118.96700 | 642 ft | 126 kts | 239° |
| 2026-05-03 22:48 | 33.93319 | -118.97582 | 638 ft | 124 kts | 239° |
| 2026-05-03 22:48 | 33.92864 | -118.98460 | 638 ft | 123 kts | 239° |
| 2026-05-03 22:49 | 33.92508 | -118.99469 | 631 ft | 138 kts | 274° |
| 2026-05-03 22:49 | 33.92518 | -119.00543 | 634 ft | 129 kts | 274° |
| 2026-05-03 22:49 | 33.92589 | -119.01585 | 639 ft | 125 kts | 274° |
| 2026-05-03 22:49 | 33.92667 | -119.02610 | 641 ft | 127 kts | 274° |
| 2026-05-03 22:50 | 33.92750 | -119.03669 | 639 ft | 125 kts | 275° |
| 2026-05-03 22:50 | 33.92827 | -119.04716 | 639 ft | 124 kts | 274° |
| 2026-05-03 22:50 | 33.92907 | -119.05766 | 641 ft | 127 kts | 275° |
| 2026-05-03 22:50 | 33.92986 | -119.06828 | 659 ft | 128 kts | 275° |
| 2026-05-03 22:51 | 33.93084 | -119.07900 | 658 ft | 130 kts | 281° |
| 2026-05-03 22:51 | 33.93282 | -119.08937 | 663 ft | 126 kts | 281° |
| 2026-05-03 22:51 | 33.93482 | -119.09963 | 661 ft | 125 kts | 281° |
| 2026-05-03 22:51 | 33.93795 | -119.10945 | 660 ft | 130 kts | 293° |
| 2026-05-03 22:52 | 33.94183 | -119.11904 | 663 ft | 127 kts | 292° |
| 2026-05-03 22:52 | 33.94566 | -119.12868 | 663 ft | 129 kts | 292° |
| 2026-05-03 22:52 | 33.94944 | -119.13841 | 664 ft | 127 kts | 292° |
| 2026-05-03 22:52 | 33.95324 | -119.14805 | 664 ft | 129 kts | 292° |
| 2026-05-03 22:53 | 33.95708 | -119.15777 | 665 ft | 127 kts | 293° |
| 2026-05-03 22:53 | 33.96117 | -119.16744 | 665 ft | 129 kts | 294° |
| 2026-05-03 22:53 | 33.96517 | -119.17707 | 666 ft | 128 kts | 294° |
| 2026-05-03 22:53 | 33.96928 | -119.18658 | 666 ft | 127 kts | 294° |
| 2026-05-03 22:54 | 33.97336 | -119.19626 | 667 ft | 131 kts | 294° |
| 2026-05-03 22:54 | 33.97767 | -119.20575 | 661 ft | 130 kts | 296° |
| 2026-05-03 22:54 | 33.98202 | -119.21526 | 655 ft | 131 kts | 301° |
| 2026-05-03 22:54 | 33.98843 | -119.22311 | 655 ft | 133 kts | 315° |
| 2026-05-03 22:55 | 33.99532 | -119.23048 | 666 ft | 132 kts | 315° |
| 2026-05-03 22:55 | 34.00199 | -119.23784 | 664 ft | 130 kts | 315° |
| 2026-05-03 22:55 | 34.00943 | -119.24438 | 659 ft | 134 kts | 328° |
| 2026-05-03 22:55 | 34.01838 | -119.24738 | 669 ft | 128 kts | 339° |
| 2026-05-03 22:56 | 34.02705 | -119.25063 | 669 ft | 130 kts | 339° |
| 2026-05-03 22:56 | 34.03570 | -119.25379 | 668 ft | 131 kts | 342° |
| 2026-05-03 22:56 | 34.04464 | -119.25535 | 670 ft | 130 kts | 351° |
| 2026-05-03 22:56 | 34.05393 | -119.25556 | 667 ft | 140 kts | 355° |
| 2026-05-03 22:57 | 34.06342 | -119.25602 | 670 ft | 137 kts | 354° |
| 2026-05-03 22:57 | 34.07291 | -119.25664 | 668 ft | 138 kts | 354° |
| 2026-05-03 22:57 | 34.08239 | -119.25723 | 668 ft | 140 kts | 354° |
| 2026-05-03 22:57 | 34.09191 | -119.25769 | 646 ft | 134 kts | 354° |
| 2026-05-03 22:58 | 34.10121 | -119.25824 | 647 ft | 131 kts | 354° |
| 2026-05-03 22:58 | 34.11061 | -119.25878 | 642 ft | 133 kts | 354° |
| 2026-05-03 22:58 | 34.11990 | -119.25922 | 646 ft | 135 kts | 354° |
| 2026-05-03 22:58 | 34.12913 | -119.25954 | 646 ft | 137 kts | 355° |
| 2026-05-03 22:59 | 34.13858 | -119.26006 | 642 ft | 136 kts | 354° |
| 2026-05-03 22:59 | 34.14811 | -119.26057 | 644 ft | 134 kts | 355° |
| 2026-05-03 22:59 | 34.15767 | -119.26106 | 641 ft | 133 kts | 355° |
| 2026-05-03 22:59 | 34.16696 | -119.26248 | 643 ft | 132 kts | 346° |
| 2026-05-03 23:00 | 34.17618 | -119.26472 | 644 ft | 135 kts | 346° |
| 2026-05-03 23:00 | 34.18538 | -119.26693 | 641 ft | 137 kts | 346° |
| 2026-05-03 23:00 | 34.19461 | -119.26906 | 642 ft | 134 kts | 346° |
| 2026-05-03 23:00 | 34.20379 | -119.27113 | 641 ft | 132 kts | 346° |
| 2026-05-03 23:01 | 34.21277 | -119.27326 | 642 ft | 136 kts | 346° |
| 2026-05-03 23:01 | 34.22192 | -119.27542 | 646 ft | 135 kts | 346° |
| 2026-05-03 23:01 | 34.23111 | -119.27754 | 647 ft | 136 kts | 346° |
| 2026-05-03 23:01 | 34.24031 | -119.27977 | 647 ft | 132 kts | 346° |
| 2026-05-03 23:02 | 34.24962 | -119.28187 | 649 ft | 130 kts | 346° |
| 2026-05-03 23:02 | 34.25888 | -119.28390 | 647 ft | 138 kts | 346° |
| 2026-05-03 23:02 | 34.26829 | -119.28608 | 645 ft | 143 kts | 346° |
| 2026-05-03 23:02 | 34.27756 | -119.28838 | 644 ft | 139 kts | 346° |
| 2026-05-03 23:03 | 34.28697 | -119.29084 | 646 ft | 135 kts | 346° |
| 2026-05-03 23:03 | 34.29608 | -119.29354 | 649 ft | 123 kts | 322° |
| 2026-05-03 23:03 | 34.30320 | -119.30034 | 634 ft | 136 kts | 311° |
| 2026-05-03 23:03 | 34.30971 | -119.30817 | 644 ft | 134 kts | 311° |
| 2026-05-03 23:04 | 34.31553 | -119.31601 | 673 ft | 113 kts | 304° |
| 2026-05-03 23:04 | 34.31893 | -119.32357 | 878 ft | 97 kts | 292° |
| 2026-05-03 23:04 | 34.32185 | -119.33107 | 1082 ft | 98 kts | 292° |
| 2026-05-03 23:04 | 34.32489 | -119.33803 | 1005 ft | 93 kts | 292° |
| 2026-05-03 23:05 | 34.32639 | -119.34269 | 1010 ft | 61 kts | 285° |
| 2026-05-03 23:05 | 34.32718 | -119.34660 | 956 ft | 15 kts | 281° |
| 2026-05-03 23:05 | 34.32745 | -119.34761 | 1091 ft | 33 kts | 285° |
| 2026-05-03 23:05 | 34.32892 | -119.35296 | 1200 ft | 68 kts | 283° |
| 2026-05-03 23:06 | 34.33039 | -119.35851 | 1186 ft | 67 kts | 283° |
| 2026-05-03 23:06 | 34.33178 | -119.36393 | 1184 ft | 68 kts | 283° |
| 2026-05-03 23:06 | 34.33321 | -119.36933 | 1161 ft | 68 kts | 283° |
| 2026-05-03 23:06 | 34.33452 | -119.37478 | 1169 ft | 68 kts | 283° |
| 2026-05-03 23:07 | 34.33577 | -119.38021 | 1167 ft | 67 kts | 283° |
| 2026-05-03 23:07 | 34.33694 | -119.38564 | 1168 ft | 71 kts | 283° |
| 2026-05-03 23:07 | 34.33816 | -119.39147 | 1162 ft | 81 kts | 283° |
| 2026-05-03 23:07 | 34.33975 | -119.39777 | 1165 ft | 78 kts | 283° |
| 2026-05-03 23:08 | 34.34136 | -119.40396 | 1161 ft | 77 kts | 283° |
| 2026-05-03 23:08 | 34.34301 | -119.41017 | 1168 ft | 79 kts | 283° |
| 2026-05-03 23:08 | 34.34418 | -119.41431 | 1160 ft | 79 kts | 283° |
| 2026-05-03 23:08 | 34.34597 | -119.42053 | 1161 ft | 78 kts | 283° |
| 2026-05-03 23:09 | 34.34780 | -119.42659 | 1156 ft | 76 kts | 283° |
| 2026-05-03 23:09 | 34.34968 | -119.43252 | 1155 ft | 75 kts | 283° |
| 2026-05-03 23:09 | 34.35194 | -119.44025 | 1155 ft | 75 kts | 283° |
| 2026-05-03 23:09 | 34.35364 | -119.44625 | 1156 ft | 76 kts | 283° |
| 2026-05-03 23:10 | 34.35481 | -119.45041 | 1157 ft | 76 kts | 283° |
| 2026-05-03 23:10 | 34.35642 | -119.45645 | 1158 ft | 76 kts | 283° |
| 2026-05-03 23:10 | 34.35790 | -119.46255 | 1157 ft | 75 kts | 283° |
| 2026-05-03 23:10 | 34.35930 | -119.46860 | 1157 ft | 75 kts | 283° |
| 2026-05-03 23:11 | 34.36075 | -119.47475 | 1160 ft | 78 kts | 283° |
| 2026-05-03 23:11 | 34.36233 | -119.48090 | 1156 ft | 75 kts | 283° |
| 2026-05-03 23:11 | 34.36390 | -119.48685 | 1161 ft | 73 kts | 283° |
| 2026-05-03 23:11 | 34.36588 | -119.49463 | 1161 ft | 73 kts | 283° |
| 2026-05-03 23:12 | 34.36656 | -119.49877 | 1162 ft | 80 kts | 252° |
| 2026-05-03 23:12 | 34.36637 | -119.50483 | 1166 ft | 70 kts | 252° |
| 2026-05-03 23:12 | 34.36544 | -119.51061 | 1158 ft | 70 kts | 252° |
| 2026-05-03 23:12 | 34.36440 | -119.51624 | 1160 ft | 69 kts | 252° |
| 2026-05-03 23:13 | 34.36331 | -119.52192 | 1164 ft | 69 kts | 252° |
| 2026-05-03 23:13 | 34.36223 | -119.52760 | 1164 ft | 71 kts | 252° |
| 2026-05-03 23:13 | 34.36125 | -119.53328 | 1162 ft | 67 kts | 252° |
| 2026-05-03 23:13 | 34.35996 | -119.53923 | 1155 ft | 92 kts | 239° |
| 2026-05-03 23:14 | 34.35725 | -119.54695 | 1162 ft | 84 kts | 245° |
| 2026-05-03 23:14 | 34.35502 | -119.55190 | 1168 ft | 55 kts | 245° |
| 2026-05-03 23:14 | 34.35295 | -119.55619 | 1162 ft | 58 kts | 245° |
| 2026-05-03 23:14 | 34.35084 | -119.56040 | 1169 ft | 58 kts | 245° |
| 2026-05-03 23:15 | 34.34869 | -119.56472 | 1167 ft | 59 kts | 245° |
| 2026-05-03 23:15 | 34.34669 | -119.56897 | 1160 ft | 61 kts | 245° |
| 2026-05-03 23:15 | 34.34453 | -119.57334 | 1163 ft | 61 kts | 245° |
| 2026-05-03 23:15 | 34.34246 | -119.57764 | 1160 ft | 59 kts | 245° |
| 2026-05-03 23:16 | 34.34045 | -119.58199 | 1157 ft | 59 kts | 245° |
| 2026-05-03 23:16 | 34.33806 | -119.58676 | 1067 ft | 82 kts | 240° |
| 2026-05-03 23:16 | 34.33440 | -119.59327 | 1084 ft | 103 kts | 236° |
| 2026-05-03 23:16 | 34.32901 | -119.60056 | 923 ft | 129 kts | 226° |
| 2026-05-03 23:17 | 34.32319 | -119.60793 | 904 ft | 118 kts | 228° |
| 2026-05-03 23:17 | 34.31733 | -119.61528 | 911 ft | 125 kts | 228° |
| 2026-05-03 23:17 | 34.31145 | -119.62275 | 914 ft | 124 kts | 228° |
| 2026-05-03 23:17 | 34.30559 | -119.63012 | 922 ft | 117 kts | 228° |
| 2026-05-03 23:18 | 34.29980 | -119.63730 | 921 ft | 119 kts | 228° |
| 2026-05-03 23:18 | 34.29395 | -119.64472 | 927 ft | 120 kts | 228° |
| 2026-05-03 23:18 | 34.28820 | -119.65188 | 919 ft | 119 kts | 228° |
| 2026-05-03 23:18 | 34.28234 | -119.65902 | 922 ft | 118 kts | 228° |
| 2026-05-03 23:19 | 34.27641 | -119.66605 | 928 ft | 120 kts | 228° |
| 2026-05-03 23:19 | 34.27036 | -119.67339 | 923 ft | 117 kts | 228° |
| 2026-05-03 23:19 | 34.26438 | -119.68067 | 923 ft | 121 kts | 228° |
| 2026-05-03 23:19 | 34.25836 | -119.68807 | 922 ft | 123 kts | 228° |
| 2026-05-03 23:20 | 34.25261 | -119.69546 | 924 ft | 123 kts | 231° |
| 2026-05-03 23:20 | 34.24883 | -119.70344 | 928 ft | 105 kts | 249° |
| 2026-05-03 23:20 | 34.24592 | -119.71245 | 932 ft | 118 kts | 249° |
| 2026-05-03 23:20 | 34.24263 | -119.72179 | 926 ft | 122 kts | 249° |
| 2026-05-03 23:21 | 34.23934 | -119.73098 | 922 ft | 123 kts | 249° |
| 2026-05-03 23:21 | 34.23610 | -119.74017 | 923 ft | 117 kts | 249° |
| 2026-05-03 23:21 | 34.23286 | -119.74896 | 923 ft | 116 kts | 249° |
| 2026-05-03 23:21 | 34.22965 | -119.75791 | 923 ft | 115 kts | 262° |
| 2026-05-03 23:22 | 34.22953 | -119.77736 | 924 ft | 116 kts | 270° |
| 2026-05-03 23:22 | 34.22950 | -119.78695 | 925 ft | 117 kts | 270° |
| 2026-05-03 23:22 | 34.22941 | -119.79671 | 925 ft | 116 kts | 270° |
| 2026-05-03 23:23 | 34.22953 | -119.80610 | 920 ft | 114 kts | 270° |
| 2026-05-03 23:23 | 34.23009 | -119.81623 | 907 ft | 127 kts | 274° |
| 2026-05-03 23:23 | 34.23105 | -119.82598 | 921 ft | 115 kts | 274° |
| 2026-05-03 23:23 | 34.23161 | -119.83537 | 926 ft | 112 kts | 274° |
| 2026-05-03 23:24 | 34.23212 | -119.84477 | 925 ft | 112 kts | 274° |
| 2026-05-03 23:24 | 34.23253 | -119.85405 | 927 ft | 113 kts | 274° |
| 2026-05-03 23:24 | 34.23292 | -119.86361 | 923 ft | 114 kts | 274° |
| 2026-05-03 23:24 | 34.23398 | -119.87310 | 926 ft | 115 kts | 279° |
| 2026-05-03 23:25 | 34.23534 | -119.88270 | 924 ft | 118 kts | 279° |
| 2026-05-03 23:25 | 34.23673 | -119.89226 | 925 ft | 115 kts | 279° |
| 2026-05-03 23:25 | 34.23810 | -119.90170 | 924 ft | 113 kts | 279° |
| 2026-05-03 23:25 | 34.23945 | -119.91127 | 927 ft | 115 kts | 279° |
| 2026-05-03 23:26 | 34.24092 | -119.92079 | 912 ft | 118 kts | 285° |
| 2026-05-03 23:26 | 34.24466 | -119.92932 | 927 ft | 111 kts | 299° |
| 2026-05-03 23:26 | 34.24871 | -119.93755 | 926 ft | 115 kts | 299° |
| 2026-05-03 23:26 | 34.25277 | -119.94589 | 925 ft | 114 kts | 299° |
| 2026-05-03 23:27 | 34.25689 | -119.95421 | 922 ft | 116 kts | 299° |
| 2026-05-03 23:27 | 34.26114 | -119.96241 | 926 ft | 115 kts | 299° |
| 2026-05-03 23:27 | 34.26549 | -119.97077 | 925 ft | 116 kts | 299° |
| 2026-05-03 23:27 | 34.26980 | -119.97899 | 924 ft | 115 kts | 299° |
| 2026-05-03 23:28 | 34.27430 | -119.98740 | 923 ft | 119 kts | 299° |
| 2026-05-03 23:28 | 34.27889 | -119.99590 | 919 ft | 120 kts | 299° |
| 2026-05-03 23:28 | 34.28342 | -120.00448 | 932 ft | 119 kts | 299° |
| 2026-05-03 23:28 | 34.28788 | -120.01284 | 931 ft | 120 kts | 299° |
| 2026-05-03 23:29 | 34.29228 | -120.02159 | 932 ft | 120 kts | 299° |
| 2026-05-03 23:29 | 34.29663 | -120.03023 | 927 ft | 119 kts | 299° |
| 2026-05-03 23:29 | 34.30103 | -120.03876 | 932 ft | 122 kts | 299° |
| 2026-05-03 23:29 | 34.30461 | -120.04799 | 937 ft | 117 kts | 284° |
| 2026-05-03 23:30 | 34.30655 | -120.05792 | 920 ft | 124 kts | 277° |
| 2026-05-03 23:30 | 34.30759 | -120.06748 | 931 ft | 114 kts | 278° |
| 2026-05-03 23:30 | 34.30868 | -120.07697 | 932 ft | 114 kts | 278° |
| 2026-05-03 23:30 | 34.30967 | -120.08649 | 933 ft | 114 kts | 276° |
| 2026-05-03 23:31 | 34.31065 | -120.09613 | 931 ft | 117 kts | 276° |
| 2026-05-03 23:31 | 34.31162 | -120.10571 | 930 ft | 114 kts | 276° |
| 2026-05-03 23:31 | 34.31244 | -120.11523 | 933 ft | 115 kts | 276° |
| 2026-05-03 23:31 | 34.31308 | -120.12481 | 929 ft | 114 kts | 276° |
| 2026-05-03 23:32 | 34.31375 | -120.13428 | 931 ft | 113 kts | 276° |
| 2026-05-03 23:32 | 34.31438 | -120.14361 | 926 ft | 112 kts | 274° |
| 2026-05-03 23:32 | 34.31385 | -120.15316 | 938 ft | 108 kts | 267° |
| 2026-05-03 23:32 | 34.31316 | -120.16265 | 929 ft | 115 kts | 267° |
| 2026-05-03 23:33 | 34.31249 | -120.17230 | 938 ft | 116 kts | 267° |
| 2026-05-03 23:33 | 34.31172 | -120.18167 | 937 ft | 110 kts | 267° |
| 2026-05-03 23:33 | 34.31089 | -120.19114 | 934 ft | 116 kts | 266° |
| 2026-05-03 23:33 | 34.31017 | -120.20073 | 935 ft | 115 kts | 267° |
| 2026-05-03 23:34 | 34.30930 | -120.21009 | 937 ft | 107 kts | 267° |
| 2026-05-03 23:34 | 34.30841 | -120.21907 | 935 ft | 108 kts | 266° |
| 2026-05-03 23:34 | 34.30779 | -120.22828 | 935 ft | 113 kts | 267° |
| 2026-05-03 23:34 | 34.30722 | -120.23770 | 935 ft | 112 kts | 267° |
| 2026-05-03 23:35 | 34.30640 | -120.24693 | 933 ft | 111 kts | 267° |
| 2026-05-03 23:35 | 34.30548 | -120.25645 | 935 ft | 116 kts | 267° |
| 2026-05-03 23:35 | 34.30468 | -120.26602 | 936 ft | 114 kts | 267° |
| 2026-05-03 23:35 | 34.30396 | -120.27570 | 935 ft | 115 kts | 267° |
| 2026-05-03 23:36 | 34.30316 | -120.28518 | 938 ft | 116 kts | 267° |
| 2026-05-03 23:36 | 34.30223 | -120.29485 | 943 ft | 115 kts | 267° |
| 2026-05-03 23:36 | 34.30121 | -120.30454 | 943 ft | 123 kts | 267° |
| 2026-05-03 23:36 | 34.30023 | -120.31454 | 942 ft | 118 kts | 267° |
| 2026-05-03 23:37 | 34.29925 | -120.32425 | 947 ft | 109 kts | 267° |
| 2026-05-03 23:37 | 34.29832 | -120.33400 | 949 ft | 121 kts | 266° |
| 2026-05-03 23:37 | 34.29741 | -120.34411 | 946 ft | 121 kts | 267° |
| 2026-05-03 23:37 | 34.29634 | -120.35367 | 948 ft | 112 kts | 267° |
| 2026-05-03 23:38 | 34.29532 | -120.36309 | 944 ft | 117 kts | 266° |
| 2026-05-03 23:38 | 34.29487 | -120.37250 | 948 ft | 109 kts | 285° |
| 2026-05-03 23:38 | 34.29688 | -120.38144 | 939 ft | 122 kts | 304° |
| 2026-05-03 23:38 | 34.30200 | -120.38934 | 941 ft | 115 kts | 308° |
| 2026-05-03 23:39 | 34.30714 | -120.39664 | 944 ft | 117 kts | 308° |
| 2026-05-03 23:39 | 34.31311 | -120.40361 | 920 ft | 130 kts | 317° |
| 2026-05-03 23:39 | 34.31970 | -120.40992 | 939 ft | 122 kts | 319° |
| 2026-05-03 23:39 | 34.32568 | -120.41678 | 946 ft | 120 kts | 309° |
| 2026-05-03 23:40 | 34.33107 | -120.42445 | 950 ft | 119 kts | 309° |
| 2026-05-03 23:40 | 34.33642 | -120.43210 | 950 ft | 119 kts | 309° |
| 2026-05-03 23:40 | 34.34174 | -120.43968 | 949 ft | 117 kts | 309° |
| 2026-05-03 23:40 | 34.34702 | -120.44713 | 948 ft | 116 kts | 309° |
| 2026-05-03 23:41 | 34.35234 | -120.45468 | 951 ft | 118 kts | 309° |
| 2026-05-03 23:41 | 34.35763 | -120.46223 | 949 ft | 118 kts | 309° |
| 2026-05-03 23:41 | 34.36273 | -120.47000 | 949 ft | 117 kts | 308° |
| 2026-05-03 23:41 | 34.36766 | -120.47772 | 950 ft | 118 kts | 308° |
| 2026-05-03 23:42 | 34.37265 | -120.48553 | 948 ft | 116 kts | 308° |
| 2026-05-03 23:42 | 34.37763 | -120.49335 | 948 ft | 116 kts | 308° |
| 2026-05-03 23:42 | 34.38277 | -120.50114 | 948 ft | 118 kts | 308° |
| 2026-05-03 23:42 | 34.38784 | -120.50887 | 949 ft | 119 kts | 308° |
| 2026-05-03 23:43 | 34.39286 | -120.51672 | 952 ft | 119 kts | 308° |
| 2026-05-03 23:43 | 34.39795 | -120.52457 | 954 ft | 118 kts | 308° |
| 2026-05-03 23:43 | 34.40336 | -120.53202 | 957 ft | 117 kts | 311° |
| 2026-05-03 23:43 | 34.40891 | -120.53949 | 954 ft | 120 kts | 311° |
| 2026-05-03 23:44 | 34.41451 | -120.54692 | 954 ft | 119 kts | 311° |
| 2026-05-03 23:44 | 34.42121 | -120.55237 | 952 ft | 125 kts | 340° |
| 2026-05-03 23:44 | 34.42941 | -120.55515 | 951 ft | 123 kts | 342° |
| 2026-05-03 23:44 | 34.43766 | -120.55765 | 952 ft | 124 kts | 342° |
| 2026-05-03 23:45 | 34.44592 | -120.56030 | 954 ft | 121 kts | 342° |
| 2026-05-03 23:45 | 34.45405 | -120.56272 | 945 ft | 120 kts | 342° |
| 2026-05-03 23:45 | 34.46225 | -120.56529 | 947 ft | 123 kts | 342° |
| 2026-05-03 23:45 | 34.47039 | -120.56796 | 946 ft | 121 kts | 342° |
| 2026-05-03 23:46 | 34.47859 | -120.57063 | 945 ft | 123 kts | 342° |
| 2026-05-03 23:46 | 34.48671 | -120.57334 | 946 ft | 122 kts | 342° |
| 2026-05-03 23:46 | 34.49480 | -120.57610 | 946 ft | 120 kts | 329° |
| 2026-05-03 23:46 | 34.50198 | -120.58117 | 944 ft | 123 kts | 319° |
| 2026-05-03 23:47 | 34.50840 | -120.58766 | 945 ft | 120 kts | 319° |
| 2026-05-03 23:47 | 34.51478 | -120.59419 | 944 ft | 119 kts | 319° |
| 2026-05-03 23:47 | 34.52103 | -120.60075 | 943 ft | 116 kts | 319° |
| 2026-05-03 23:47 | 34.52602 | -120.60829 | 939 ft | 117 kts | 298° |
| 2026-05-03 23:48 | 34.52956 | -120.61705 | 948 ft | 114 kts | 298° |
| 2026-05-03 23:48 | 34.53328 | -120.62578 | 946 ft | 118 kts | 301° |
| 2026-05-03 23:48 | 34.53857 | -120.63311 | 945 ft | 120 kts | 320° |
| 2026-05-03 23:48 | 34.54508 | -120.63960 | 945 ft | 122 kts | 316° |
| 2026-05-03 23:49 | 34.55126 | -120.64645 | 948 ft | 119 kts | 316° |
| 2026-05-03 23:49 | 34.55744 | -120.65319 | 946 ft | 117 kts | 316° |
| 2026-05-03 23:49 | 34.56339 | -120.65970 | 951 ft | 115 kts | 316° |
| 2026-05-03 23:49 | 34.56944 | -120.66649 | 951 ft | 121 kts | 316° |
| 2026-05-03 23:50 | 34.57550 | -120.67336 | 950 ft | 116 kts | 316° |
| 2026-05-03 23:50 | 34.58165 | -120.68014 | 952 ft | 118 kts | 316° |
| 2026-05-03 23:50 | 34.58784 | -120.68704 | 949 ft | 119 kts | 316° |
| 2026-05-03 23:50 | 34.59397 | -120.69366 | 951 ft | 122 kts | 316° |
| 2026-05-03 23:51 | 34.60027 | -120.70045 | 952 ft | 121 kts | 316° |
| 2026-05-03 23:51 | 34.60640 | -120.70731 | 952 ft | 121 kts | 316° |
| 2026-05-03 23:51 | 34.61262 | -120.71400 | 950 ft | 119 kts | 316° |
| 2026-05-03 23:51 | 34.61886 | -120.72084 | 951 ft | 122 kts | 316° |
| 2026-05-03 23:52 | 34.62506 | -120.72776 | 951 ft | 121 kts | 316° |
| 2026-05-03 23:52 | 34.63128 | -120.73466 | 951 ft | 122 kts | 316° |
| 2026-05-03 23:52 | 34.63744 | -120.74150 | 952 ft | 121 kts | 316° |
| 2026-05-03 23:52 | 34.64354 | -120.74821 | 951 ft | 121 kts | 316° |
| 2026-05-03 23:53 | 34.64973 | -120.75505 | 952 ft | 118 kts | 316° |
| 2026-05-03 23:53 | 34.65600 | -120.76192 | 951 ft | 121 kts | 316° |
| 2026-05-03 23:53 | 34.66217 | -120.76876 | 948 ft | 120 kts | 317° |
| 2026-05-03 23:53 | 34.67014 | -120.77147 | 947 ft | 124 kts | 1° |
| 2026-05-03 23:54 | 34.67890 | -120.76934 | 951 ft | 131 kts | 7° |
| 2026-05-03 23:54 | 34.68768 | -120.76729 | 952 ft | 127 kts | 7° |
| 2026-05-03 23:54 | 34.69629 | -120.76534 | 951 ft | 125 kts | 7° |
| 2026-05-03 23:54 | 34.70508 | -120.76334 | 950 ft | 125 kts | 7° |
| 2026-05-03 23:55 | 34.71369 | -120.76148 | 951 ft | 129 kts | 7° |
| 2026-05-03 23:55 | 34.72217 | -120.75958 | 949 ft | 130 kts | 7° |
| 2026-05-03 23:55 | 34.73085 | -120.75757 | 950 ft | 120 kts | 11° |
| 2026-05-03 23:55 | 34.73943 | -120.75474 | 953 ft | 130 kts | 11° |
| 2026-05-03 23:56 | 34.74805 | -120.75205 | 949 ft | 126 kts | 11° |
| 2026-05-03 23:56 | 34.75673 | -120.74925 | 952 ft | 127 kts | 11° |
| 2026-05-03 23:56 | 34.76543 | -120.74645 | 950 ft | 128 kts | 11° |
| 2026-05-03 23:56 | 34.77434 | -120.74368 | 949 ft | 127 kts | 11° |
| 2026-05-03 23:57 | 34.78306 | -120.74090 | 952 ft | 132 kts | 11° |
| 2026-05-03 23:57 | 34.79179 | -120.73793 | 950 ft | 130 kts | 11° |
| 2026-05-03 23:57 | 34.80032 | -120.73509 | 947 ft | 128 kts | 11° |
| 2026-05-03 23:57 | 34.80901 | -120.73236 | 948 ft | 125 kts | 5° |
| 2026-05-03 23:58 | 34.81780 | -120.73051 | 952 ft | 129 kts | 6° |
| 2026-05-03 23:58 | 34.82665 | -120.72867 | 949 ft | 129 kts | 5° |
| 2026-05-03 23:58 | 34.83539 | -120.72703 | 950 ft | 128 kts | 6° |
| 2026-05-03 23:58 | 34.84432 | -120.72538 | 948 ft | 130 kts | 6° |
| 2026-05-03 23:59 | 34.85314 | -120.72359 | 952 ft | 129 kts | 6° |
| 2026-05-03 23:59 | 34.86193 | -120.72186 | 950 ft | 130 kts | 6° |
| 2026-05-03 23:59 | 34.87062 | -120.72004 | 948 ft | 130 kts | 5° |
| 2026-05-03 23:59 | 34.87890 | -120.71969 | 950 ft | 126 kts | 350° |
| 2026-05-04 00:00 | 34.88771 | -120.72062 | 951 ft | 126 kts | 350° |
| 2026-05-04 00:00 | 34.89631 | -120.72168 | 948 ft | 124 kts | 350° |
| 2026-05-04 00:00 | 34.90495 | -120.72258 | 954 ft | 124 kts | 350° |
| 2026-05-04 00:00 | 34.91372 | -120.72380 | 951 ft | 127 kts | 350° |
| 2026-05-04 00:01 | 34.92241 | -120.72485 | 947 ft | 124 kts | 350° |
| 2026-05-04 00:01 | 34.93118 | -120.72654 | 945 ft | 122 kts | 343° |
| 2026-05-04 00:01 | 34.93967 | -120.72989 | 947 ft | 125 kts | 330° |
| 2026-05-04 00:01 | 34.94710 | -120.73449 | 946 ft | 119 kts | 329° |
| 2026-05-04 00:02 | 34.95443 | -120.73928 | 946 ft | 125 kts | 329° |
| 2026-05-04 00:02 | 34.96181 | -120.74400 | 943 ft | 121 kts | 329° |
| 2026-05-04 00:02 | 34.96929 | -120.74878 | 940 ft | 120 kts | 329° |
| 2026-05-04 00:02 | 34.97679 | -120.75347 | 947 ft | 118 kts | 329° |
| 2026-05-04 00:03 | 34.98424 | -120.75813 | 944 ft | 122 kts | 329° |
| 2026-05-04 00:03 | 34.99169 | -120.76305 | 945 ft | 121 kts | 329° |
| 2026-05-04 00:03 | 34.99920 | -120.76787 | 944 ft | 123 kts | 329° |
| 2026-05-04 00:03 | 35.00669 | -120.77281 | 945 ft | 118 kts | 329° |
| 2026-05-04 00:04 | 35.01395 | -120.77768 | 949 ft | 116 kts | 324° |
| 2026-05-04 00:04 | 35.02095 | -120.78295 | 949 ft | 122 kts | 324° |
| 2026-05-04 00:04 | 35.02801 | -120.78853 | 946 ft | 120 kts | 324° |
| 2026-05-04 00:04 | 35.03516 | -120.79458 | 907 ft | 139 kts | 321° |
| 2026-05-04 00:05 | 35.04190 | -120.80120 | 946 ft | 126 kts | 320° |
| 2026-05-04 00:05 | 35.04874 | -120.80758 | 935 ft | 124 kts | 317° |
| 2026-05-04 00:05 | 35.05504 | -120.81398 | 944 ft | 118 kts | 317° |
| 2026-05-04 00:05 | 35.06144 | -120.82066 | 946 ft | 120 kts | 317° |
| 2026-05-04 00:06 | 35.06790 | -120.82742 | 944 ft | 126 kts | 317° |
| 2026-05-04 00:06 | 35.07449 | -120.83408 | 941 ft | 123 kts | 317° |
| 2026-05-04 00:06 | 35.08080 | -120.84063 | 936 ft | 115 kts | 314° |
| 2026-05-04 00:06 | 35.08606 | -120.84807 | 945 ft | 124 kts | 306° |
| 2026-05-04 00:07 | 35.09106 | -120.85599 | 943 ft | 117 kts | 306° |
| 2026-05-04 00:07 | 35.09606 | -120.86374 | 943 ft | 117 kts | 306° |
| 2026-05-04 00:07 | 35.10120 | -120.87165 | 942 ft | 119 kts | 306° |
| 2026-05-04 00:07 | 35.10624 | -120.87967 | 940 ft | 121 kts | 306° |
| 2026-05-04 00:08 | 35.11132 | -120.88782 | 941 ft | 120 kts | 306° |
| 2026-05-04 00:08 | 35.11638 | -120.89595 | 940 ft | 120 kts | 306° |
| 2026-05-04 00:08 | 35.12138 | -120.90385 | 939 ft | 118 kts | 306° |
| 2026-05-04 00:08 | 35.12635 | -120.91145 | 944 ft | 117 kts | 306° |
| 2026-05-04 00:09 | 35.13134 | -120.91925 | 937 ft | 118 kts | 306° |
| 2026-05-04 00:09 | 35.13624 | -120.92715 | 938 ft | 119 kts | 306° |
| 2026-05-04 00:09 | 35.14116 | -120.93504 | 940 ft | 111 kts | 306° |
| 2026-05-04 00:09 | 35.14603 | -120.94285 | 943 ft | 122 kts | 306° |
| 2026-05-04 00:10 | 35.15100 | -120.95128 | 941 ft | 122 kts | 306° |
| 2026-05-04 00:10 | 35.15668 | -120.95913 | 936 ft | 124 kts | 320° |
| 2026-05-04 00:10 | 35.16379 | -120.96481 | 942 ft | 125 kts | 324° |
| 2026-05-04 00:10 | 35.17088 | -120.97031 | 947 ft | 121 kts | 324° |
| 2026-05-04 00:11 | 35.17795 | -120.97580 | 947 ft | 121 kts | 324° |
| 2026-05-04 00:11 | 35.18512 | -120.98124 | 947 ft | 120 kts | 324° |
| 2026-05-04 00:11 | 35.19241 | -120.98686 | 948 ft | 121 kts | 324° |
| 2026-05-04 00:11 | 35.19964 | -120.99257 | 948 ft | 123 kts | 324° |
| 2026-05-04 00:12 | 35.20676 | -120.99812 | 946 ft | 121 kts | 324° |
| 2026-05-04 00:12 | 35.21395 | -121.00385 | 944 ft | 120 kts | 324° |
| 2026-05-04 00:12 | 35.22106 | -121.00945 | 949 ft | 124 kts | 324° |
| 2026-05-04 00:12 | 35.22825 | -121.01537 | 941 ft | 121 kts | 324° |
| 2026-05-04 00:13 | 35.23532 | -121.02098 | 951 ft | 122 kts | 324° |
| 2026-05-04 00:13 | 35.24251 | -121.02668 | 950 ft | 124 kts | 324° |
| 2026-05-04 00:13 | 35.24960 | -121.03230 | 947 ft | 123 kts | 324° |
| 2026-05-04 00:13 | 35.25681 | -121.03803 | 946 ft | 125 kts | 324° |
| 2026-05-04 00:14 | 35.26397 | -121.04370 | 951 ft | 122 kts | 324° |
| 2026-05-04 00:14 | 35.27121 | -121.04953 | 949 ft | 122 kts | 324° |
| 2026-05-04 00:14 | 35.27885 | -121.05435 | 937 ft | 136 kts | 345° |
| 2026-05-04 00:14 | 35.28822 | -121.05518 | 957 ft | 123 kts | 356° |
| 2026-05-04 00:15 | 35.29708 | -121.05522 | 953 ft | 127 kts | 356° |
| 2026-05-04 00:15 | 35.30601 | -121.05518 | 949 ft | 130 kts | 356° |
| 2026-05-04 00:15 | 35.31483 | -121.05460 | 949 ft | 129 kts | 358° |
| 2026-05-04 00:15 | 35.32377 | -121.05404 | 950 ft | 130 kts | 358° |
| 2026-05-04 00:16 | 35.33284 | -121.05343 | 949 ft | 130 kts | 358° |
| 2026-05-04 00:16 | 35.34180 | -121.05301 | 949 ft | 130 kts | 358° |
| 2026-05-04 00:16 | 35.35079 | -121.05255 | 946 ft | 128 kts | 358° |
| 2026-05-04 00:16 | 35.35963 | -121.05218 | 952 ft | 129 kts | 358° |
| 2026-05-04 00:17 | 35.36850 | -121.05173 | 946 ft | 127 kts | 358° |
| 2026-05-04 00:17 | 35.37731 | -121.05124 | 948 ft | 128 kts | 358° |
| 2026-05-04 00:17 | 35.38619 | -121.05079 | 949 ft | 129 kts | 358° |
| 2026-05-04 00:17 | 35.39517 | -121.05027 | 946 ft | 129 kts | 358° |
| 2026-05-04 00:18 | 35.40414 | -121.04953 | 946 ft | 131 kts | 358° |
| 2026-05-04 00:18 | 35.41311 | -121.04897 | 947 ft | 128 kts | 358° |
| 2026-05-04 00:18 | 35.42216 | -121.04857 | 946 ft | 129 kts | 359° |
| 2026-05-04 00:18 | 35.43104 | -121.04799 | 947 ft | 131 kts | 358° |
| 2026-05-04 00:19 | 35.44014 | -121.04744 | 946 ft | 129 kts | 358° |
| 2026-05-04 00:19 | 35.44923 | -121.04698 | 945 ft | 130 kts | 358° |
| 2026-05-04 00:19 | 35.45820 | -121.04651 | 946 ft | 128 kts | 358° |
| 2026-05-04 00:19 | 35.46735 | -121.04594 | 942 ft | 135 kts | 359° |
| 2026-05-04 00:20 | 35.47650 | -121.04546 | 943 ft | 132 kts | 358° |
| 2026-05-04 00:20 | 35.48559 | -121.04498 | 942 ft | 132 kts | 359° |
| 2026-05-04 00:20 | 35.49467 | -121.04437 | 943 ft | 133 kts | 358° |
| 2026-05-04 00:20 | 35.50373 | -121.04363 | 946 ft | 127 kts | 358° |
| 2026-05-04 00:21 | 35.51261 | -121.04394 | 940 ft | 129 kts | 343° |
| 2026-05-04 00:21 | 35.52117 | -121.04683 | 940 ft | 128 kts | 337° |
| 2026-05-04 00:21 | 35.52950 | -121.05011 | 943 ft | 123 kts | 337° |
| 2026-05-04 00:21 | 35.53775 | -121.05331 | 945 ft | 134 kts | 337° |
| 2026-05-04 00:22 | 35.54634 | -121.05702 | 944 ft | 125 kts | 337° |
| 2026-05-04 00:22 | 35.55494 | -121.06023 | 944 ft | 129 kts | 330° |
| 2026-05-04 00:22 | 35.56293 | -121.06500 | 946 ft | 129 kts | 325° |
| 2026-05-04 00:22 | 35.57094 | -121.07029 | 943 ft | 130 kts | 325° |
| 2026-05-04 00:23 | 35.57865 | -121.07585 | 941 ft | 131 kts | 325° |
| 2026-05-04 00:23 | 35.58648 | -121.08146 | 943 ft | 126 kts | 312° |
| 2026-05-04 00:23 | 35.59208 | -121.08933 | 941 ft | 122 kts | 298° |
| 2026-05-04 00:23 | 35.59632 | -121.09788 | 966 ft | 110 kts | 296° |
| 2026-05-04 00:24 | 35.59886 | -121.10542 | 593 ft | 84 kts | 279° |
| 2026-05-04 00:24 | 35.59960 | -121.11134 | 413 ft | 55 kts | 277° |
| 2026-05-04 00:24 | 35.59988 | -121.11435 | 326 ft | 20 kts | 297° |
| 2026-05-04 00:24 | 35.59989 | -121.11474 | 182 ft | 3 kts | 308° |
| 2026-05-04 00:25 | 35.60030 | -121.11510 | 256 ft | 18 kts | 356° |
| 2026-05-04 00:25 | 35.60254 | -121.11486 | 424 ft | 56 kts | 16° |
| 2026-05-04 00:25 | 35.60636 | -121.11261 | 464 ft | 57 kts | 27° |
| 2026-05-04 00:25 | 35.60914 | -121.11094 | 393 ft | 25 kts | 21° |
| 2026-05-04 00:26 | 35.60953 | -121.11078 | 373 ft | 5 kts | 2° |
| 2026-05-04 00:26 | 35.60956 | -121.11076 | 369 ft | 0 kts | 5° |
| 2026-05-04 00:26 | 35.61065 | -121.11269 | 490 ft | 58 kts | 309° |
| 2026-05-04 00:27 | 35.61201 | -121.11928 | 757 ft | 100 kts | 283° |
| 2026-05-04 00:27 | 35.61505 | -121.12885 | 650 ft | 136 kts | 289° |
| 2026-05-04 00:27 | 35.61812 | -121.13992 | 466 ft | 129 kts | 281° |
| 2026-05-04 00:27 | 35.62014 | -121.15003 | 771 ft | 115 kts | 281° |
| 2026-05-04 00:28 | 35.62178 | -121.16048 | 744 ft | 136 kts | 280° |
| 2026-05-04 00:28 | 35.62345 | -121.17239 | 663 ft | 142 kts | 279° |
| 2026-05-04 00:28 | 35.62516 | -121.18439 | 639 ft | 138 kts | 279° |
| 2026-05-04 00:28 | 35.62723 | -121.19608 | 635 ft | 141 kts | 279° |
| 2026-05-04 00:29 | 35.62942 | -121.20781 | 640 ft | 139 kts | 279° |
| 2026-05-04 00:29 | 35.63175 | -121.21901 | 638 ft | 137 kts | 279° |
| 2026-05-04 00:29 | 35.63407 | -121.23061 | 638 ft | 145 kts | 279° |
| 2026-05-04 00:29 | 35.63600 | -121.24230 | 646 ft | 135 kts | 279° |
| 2026-05-04 00:30 | 35.63768 | -121.25375 | 642 ft | 139 kts | 279° |
| 2026-05-04 00:30 | 35.63928 | -121.26552 | 645 ft | 139 kts | 279° |
| 2026-05-04 00:30 | 35.64094 | -121.27706 | 644 ft | 140 kts | 279° |
| 2026-05-04 00:30 | 35.64252 | -121.28885 | 645 ft | 140 kts | 279° |
| 2026-05-04 00:31 | 35.64405 | -121.30069 | 642 ft | 140 kts | 279° |
| 2026-05-04 00:31 | 35.64541 | -121.31252 | 642 ft | 141 kts | 279° |
| 2026-05-04 00:31 | 35.64690 | -121.32441 | 644 ft | 140 kts | 279° |
| 2026-05-04 00:31 | 35.64838 | -121.33625 | 643 ft | 140 kts | 279° |
| 2026-05-04 00:32 | 35.64986 | -121.34793 | 643 ft | 137 kts | 279° |
| 2026-05-04 00:32 | 35.65135 | -121.35971 | 647 ft | 139 kts | 279° |
| 2026-05-04 00:32 | 35.65299 | -121.37125 | 647 ft | 136 kts | 279° |
| 2026-05-04 00:32 | 35.65455 | -121.38248 | 640 ft | 136 kts | 279° |
| 2026-05-04 00:33 | 35.65626 | -121.39389 | 641 ft | 138 kts | 279° |
| 2026-05-04 00:33 | 35.65974 | -121.41748 | 647 ft | 136 kts | 279° |
| 2026-05-04 00:33 | 35.66121 | -121.42880 | 650 ft | 139 kts | 279° |
| 2026-05-04 00:34 | 35.66277 | -121.44045 | 639 ft | 138 kts | 279° |
| 2026-05-04 00:34 | 35.66446 | -121.45203 | 638 ft | 138 kts | 279° |
| 2026-05-04 00:34 | 35.66617 | -121.46319 | 638 ft | 134 kts | 279° |
| 2026-05-04 00:34 | 35.66791 | -121.47476 | 644 ft | 139 kts | 279° |
| 2026-05-04 00:35 | 35.67094 | -121.48556 | 640 ft | 140 kts | 309° |
| 2026-05-04 00:35 | 35.67770 | -121.49436 | 635 ft | 145 kts | 323° |
| 2026-05-04 00:35 | 35.68650 | -121.50059 | 645 ft | 142 kts | 335° |
| 2026-05-04 00:35 | 35.69590 | -121.50525 | 645 ft | 147 kts | 335° |
| 2026-05-04 00:36 | 35.70530 | -121.50961 | 647 ft | 148 kts | 335° |
| 2026-05-04 00:36 | 35.71481 | -121.51419 | 647 ft | 146 kts | 335° |
| 2026-05-04 00:36 | 35.72414 | -121.51882 | 650 ft | 142 kts | 335° |
| 2026-05-04 00:36 | 35.73357 | -121.52343 | 646 ft | 142 kts | 335° |
| 2026-05-04 00:37 | 35.74266 | -121.52817 | 647 ft | 146 kts | 335° |
| 2026-05-04 00:37 | 35.75195 | -121.53288 | 645 ft | 144 kts | 335° |
| 2026-05-04 00:37 | 35.76133 | -121.53770 | 643 ft | 146 kts | 335° |
| 2026-05-04 00:37 | 35.77067 | -121.54239 | 644 ft | 146 kts | 337° |
| 2026-05-04 00:38 | 35.78010 | -121.54670 | 642 ft | 144 kts | 337° |
| 2026-05-04 00:38 | 35.78949 | -121.55104 | 645 ft | 148 kts | 337° |
| 2026-05-04 00:38 | 35.79894 | -121.55541 | 645 ft | 143 kts | 337° |
| 2026-05-04 00:38 | 35.80831 | -121.55979 | 643 ft | 143 kts | 337° |
| 2026-05-04 00:39 | 35.81757 | -121.56425 | 644 ft | 146 kts | 337° |
| 2026-05-04 00:39 | 35.82663 | -121.56919 | 634 ft | 145 kts | 324° |
| 2026-05-04 00:39 | 35.83466 | -121.57638 | 642 ft | 143 kts | 322° |
| 2026-05-04 00:39 | 35.84259 | -121.58376 | 643 ft | 143 kts | 322° |
| 2026-05-04 00:40 | 35.85052 | -121.59109 | 645 ft | 142 kts | 322° |
| 2026-05-04 00:40 | 35.85841 | -121.59844 | 641 ft | 141 kts | 322° |
| 2026-05-04 00:40 | 35.86630 | -121.60577 | 645 ft | 142 kts | 322° |
| 2026-05-04 00:40 | 35.87423 | -121.61313 | 643 ft | 144 kts | 322° |
| 2026-05-04 00:41 | 35.88224 | -121.62046 | 644 ft | 141 kts | 322° |
| 2026-05-04 00:41 | 35.89026 | -121.62769 | 646 ft | 139 kts | 322° |
| 2026-05-04 00:41 | 35.89815 | -121.63494 | 649 ft | 142 kts | 322° |
| 2026-05-04 00:41 | 35.90610 | -121.64244 | 641 ft | 147 kts | 322° |
| 2026-05-04 00:42 | 35.91404 | -121.64996 | 643 ft | 142 kts | 322° |
| 2026-05-04 00:42 | 35.92166 | -121.65785 | 655 ft | 140 kts | 319° |
| 2026-05-04 00:42 | 35.92904 | -121.66586 | 641 ft | 142 kts | 319° |
| 2026-05-04 00:42 | 35.93645 | -121.67401 | 642 ft | 143 kts | 318° |
| 2026-05-04 00:43 | 35.94395 | -121.68214 | 646 ft | 141 kts | 318° |
| 2026-05-04 00:43 | 35.95145 | -121.69021 | 646 ft | 143 kts | 318° |
| 2026-05-04 00:43 | 35.95895 | -121.69830 | 647 ft | 142 kts | 318° |
| 2026-05-04 00:43 | 35.96625 | -121.70626 | 644 ft | 141 kts | 318° |
| 2026-05-04 00:44 | 35.97373 | -121.71428 | 644 ft | 144 kts | 318° |
| 2026-05-04 00:44 | 35.98137 | -121.72239 | 650 ft | 147 kts | 319° |
| 2026-05-04 00:44 | 35.98907 | -121.73058 | 642 ft | 146 kts | 319° |
| 2026-05-04 00:44 | 35.99678 | -121.73882 | 641 ft | 148 kts | 318° |
| 2026-05-04 00:45 | 36.00450 | -121.74695 | 654 ft | 145 kts | 318° |
| 2026-05-04 00:45 | 36.01228 | -121.75494 | 649 ft | 147 kts | 319° |
| 2026-05-04 00:45 | 36.02001 | -121.76308 | 647 ft | 145 kts | 319° |
| 2026-05-04 00:45 | 36.02772 | -121.77128 | 649 ft | 147 kts | 319° |
| 2026-05-04 00:46 | 36.03553 | -121.77942 | 645 ft | 147 kts | 319° |
| 2026-05-04 00:46 | 36.04320 | -121.78738 | 641 ft | 146 kts | 319° |
| 2026-05-04 00:46 | 36.05103 | -121.79549 | 646 ft | 149 kts | 319° |
| 2026-05-04 00:46 | 36.05879 | -121.80379 | 656 ft | 145 kts | 319° |
| 2026-05-04 00:47 | 36.06639 | -121.81212 | 647 ft | 146 kts | 319° |
| 2026-05-04 00:47 | 36.07399 | -121.82043 | 648 ft | 147 kts | 318° |
| 2026-05-04 00:47 | 36.08160 | -121.82878 | 649 ft | 146 kts | 318° |
| 2026-05-04 00:47 | 36.08921 | -121.83708 | 650 ft | 146 kts | 319° |
| 2026-05-04 00:48 | 36.09679 | -121.84538 | 649 ft | 146 kts | 318° |
| 2026-05-04 00:48 | 36.10439 | -121.85367 | 649 ft | 145 kts | 319° |
| 2026-05-04 00:48 | 36.11199 | -121.86196 | 651 ft | 145 kts | 318° |
| 2026-05-04 00:48 | 36.11951 | -121.87014 | 652 ft | 146 kts | 319° |
| 2026-05-04 00:49 | 36.12714 | -121.87842 | 651 ft | 146 kts | 319° |
| 2026-05-04 00:49 | 36.13476 | -121.88669 | 650 ft | 147 kts | 319° |
| 2026-05-04 00:49 | 36.14240 | -121.89502 | 651 ft | 146 kts | 319° |
| 2026-05-04 00:49 | 36.15001 | -121.90334 | 652 ft | 146 kts | 319° |
| 2026-05-04 00:50 | 36.15761 | -121.91163 | 651 ft | 145 kts | 319° |
| 2026-05-04 00:50 | 36.16521 | -121.91996 | 651 ft | 146 kts | 319° |
| 2026-05-04 00:50 | 36.17283 | -121.92825 | 655 ft | 146 kts | 319° |
| 2026-05-04 00:50 | 36.18037 | -121.93642 | 654 ft | 145 kts | 319° |
| 2026-05-04 00:51 | 36.18799 | -121.94468 | 656 ft | 145 kts | 319° |
| 2026-05-04 00:51 | 36.19563 | -121.95294 | 654 ft | 147 kts | 319° |
| 2026-05-04 00:51 | 36.20327 | -121.96123 | 654 ft | 146 kts | 319° |
| 2026-05-04 00:51 | 36.21094 | -121.96954 | 656 ft | 147 kts | 319° |
| 2026-05-04 00:52 | 36.21858 | -121.97784 | 657 ft | 147 kts | 319° |
| 2026-05-04 00:52 | 36.22623 | -121.98615 | 657 ft | 147 kts | 319° |
| 2026-05-04 00:52 | 36.23389 | -121.99444 | 657 ft | 147 kts | 319° |
| 2026-05-04 00:52 | 36.24155 | -122.00273 | 657 ft | 147 kts | 319° |
| 2026-05-04 00:53 | 36.24912 | -122.01090 | 657 ft | 146 kts | 319° |
| 2026-05-04 00:53 | 36.25680 | -122.01916 | 657 ft | 146 kts | 319° |
| 2026-05-04 00:53 | 36.26448 | -122.02744 | 657 ft | 146 kts | 319° |
| 2026-05-04 00:53 | 36.27216 | -122.03571 | 656 ft | 147 kts | 319° |
| 2026-05-04 00:54 | 36.27983 | -122.04400 | 656 ft | 146 kts | 319° |
| 2026-05-04 00:54 | 36.28753 | -122.05232 | 656 ft | 146 kts | 319° |
| 2026-05-04 00:54 | 36.29520 | -122.06064 | 656 ft | 149 kts | 319° |
| 2026-05-04 00:54 | 36.30313 | -122.06888 | 658 ft | 150 kts | 319° |
| 2026-05-04 00:55 | 36.31098 | -122.07708 | 649 ft | 145 kts | 319° |
| 2026-05-04 00:55 | 36.31864 | -122.08496 | 659 ft | 145 kts | 319° |
| 2026-05-04 00:55 | 36.32653 | -122.09297 | 657 ft | 146 kts | 319° |
| 2026-05-04 00:55 | 36.33438 | -122.10092 | 655 ft | 146 kts | 319° |
| 2026-05-04 00:56 | 36.34349 | -122.10603 | 657 ft | 145 kts | 3° |
| 2026-05-04 00:56 | 36.35396 | -122.10613 | 658 ft | 150 kts | 359° |
| 2026-05-04 00:56 | 36.36449 | -122.10594 | 658 ft | 151 kts | 359° |
| 2026-05-04 00:56 | 36.37509 | -122.10576 | 660 ft | 154 kts | 359° |
| 2026-05-04 00:57 | 36.38557 | -122.10557 | 661 ft | 149 kts | 359° |
| 2026-05-04 00:57 | 36.39603 | -122.10535 | 662 ft | 151 kts | 359° |
| 2026-05-04 00:57 | 36.40660 | -122.10515 | 659 ft | 151 kts | 359° |
| 2026-05-04 00:57 | 36.41690 | -122.10490 | 660 ft | 152 kts | 359° |
| 2026-05-04 00:58 | 36.42739 | -122.10462 | 660 ft | 150 kts | 359° |
| 2026-05-04 00:58 | 36.43795 | -122.10434 | 659 ft | 152 kts | 359° |
| 2026-05-04 00:58 | 36.44845 | -122.10406 | 658 ft | 152 kts | 359° |
| 2026-05-04 00:58 | 36.45893 | -122.10376 | 664 ft | 153 kts | 359° |
| 2026-05-04 00:59 | 36.46951 | -122.10347 | 664 ft | 151 kts | 359° |
| 2026-05-04 00:59 | 36.48005 | -122.10326 | 665 ft | 151 kts | 359° |
| 2026-05-04 00:59 | 36.49058 | -122.10309 | 666 ft | 152 kts | 359° |
| 2026-05-04 00:59 | 36.50112 | -122.10289 | 666 ft | 152 kts | 359° |
| 2026-05-04 01:00 | 36.51177 | -122.10268 | 666 ft | 153 kts | 359° |
| 2026-05-04 01:00 | 36.52232 | -122.10332 | 666 ft | 154 kts | 353° |
| 2026-05-04 01:00 | 36.53295 | -122.10424 | 667 ft | 155 kts | 353° |
| 2026-05-04 01:00 | 36.54364 | -122.10522 | 666 ft | 156 kts | 353° |
| 2026-05-04 01:01 | 36.55417 | -122.10618 | 661 ft | 154 kts | 353° |
| 2026-05-04 01:01 | 36.56476 | -122.10718 | 665 ft | 154 kts | 353° |
| 2026-05-04 01:01 | 36.57533 | -122.10828 | 664 ft | 149 kts | 353° |
| 2026-05-04 01:01 | 36.58583 | -122.10935 | 667 ft | 150 kts | 353° |
| 2026-05-04 01:02 | 36.59637 | -122.11037 | 668 ft | 152 kts | 353° |
| 2026-05-04 01:02 | 36.60703 | -122.11130 | 666 ft | 153 kts | 353° |
| 2026-05-04 01:02 | 36.61752 | -122.11223 | 664 ft | 152 kts | 353° |
| 2026-05-04 01:02 | 36.62820 | -122.11315 | 663 ft | 152 kts | 353° |
| 2026-05-04 01:03 | 36.63882 | -122.11404 | 664 ft | 153 kts | 353° |
| 2026-05-04 01:03 | 36.64949 | -122.11510 | 662 ft | 153 kts | 353° |
| 2026-05-04 01:03 | 36.66001 | -122.11618 | 661 ft | 150 kts | 343° |
| 2026-05-04 01:03 | 36.67047 | -122.11852 | 662 ft | 152 kts | 346° |
| 2026-05-04 01:04 | 36.68085 | -122.12106 | 664 ft | 152 kts | 346° |
| 2026-05-04 01:04 | 36.69107 | -122.12367 | 658 ft | 154 kts | 346° |
| 2026-05-04 01:04 | 36.70143 | -122.12620 | 658 ft | 149 kts | 346° |
| 2026-05-04 01:04 | 36.71156 | -122.12861 | 659 ft | 148 kts | 346° |
| 2026-05-04 01:05 | 36.72189 | -122.13103 | 660 ft | 149 kts | 346° |
| 2026-05-04 01:05 | 36.73214 | -122.13344 | 660 ft | 151 kts | 346° |
| 2026-05-04 01:05 | 36.74219 | -122.13702 | 652 ft | 149 kts | 329° |
| 2026-05-04 01:05 | 36.75031 | -122.14481 | 658 ft | 146 kts | 318° |
| 2026-05-04 01:06 | 36.75810 | -122.15285 | 661 ft | 145 kts | 318° |
| 2026-05-04 01:06 | 36.76603 | -122.16102 | 659 ft | 147 kts | 318° |
| 2026-05-04 01:06 | 36.77388 | -122.16909 | 659 ft | 146 kts | 318° |
| 2026-05-04 01:06 | 36.78160 | -122.17699 | 657 ft | 145 kts | 318° |
| 2026-05-04 01:07 | 36.78944 | -122.18496 | 658 ft | 145 kts | 318° |
| 2026-05-04 01:07 | 36.79725 | -122.19291 | 657 ft | 146 kts | 318° |
| 2026-05-04 01:07 | 36.80515 | -122.20088 | 657 ft | 147 kts | 318° |
| 2026-05-04 01:07 | 36.81301 | -122.20883 | 657 ft | 145 kts | 318° |
| 2026-05-04 01:08 | 36.82099 | -122.21698 | 656 ft | 148 kts | 318° |
| 2026-05-04 01:08 | 36.82886 | -122.22494 | 655 ft | 146 kts | 318° |
| 2026-05-04 01:08 | 36.83675 | -122.23296 | 654 ft | 147 kts | 318° |
| 2026-05-04 01:08 | 36.84454 | -122.24084 | 653 ft | 147 kts | 318° |
| 2026-05-04 01:09 | 36.85238 | -122.24883 | 654 ft | 144 kts | 318° |
| 2026-05-04 01:09 | 36.86023 | -122.25679 | 654 ft | 145 kts | 318° |
| 2026-05-04 01:09 | 36.86807 | -122.26462 | 654 ft | 143 kts | 318° |
| 2026-05-04 01:09 | 36.87592 | -122.27256 | 654 ft | 145 kts | 318° |
| 2026-05-04 01:10 | 36.88372 | -122.28046 | 653 ft | 146 kts | 318° |
| 2026-05-04 01:10 | 36.89149 | -122.28840 | 654 ft | 143 kts | 318° |
| 2026-05-04 01:10 | 36.89921 | -122.29653 | 651 ft | 144 kts | 318° |
| 2026-05-04 01:10 | 36.90678 | -122.30433 | 650 ft | 143 kts | 318° |
| 2026-05-04 01:11 | 36.91450 | -122.31239 | 649 ft | 141 kts | 318° |
| 2026-05-04 01:11 | 36.92216 | -122.32028 | 648 ft | 144 kts | 318° |
| 2026-05-04 01:11 | 36.92975 | -122.32832 | 649 ft | 142 kts | 318° |
| 2026-05-04 01:11 | 36.93747 | -122.33650 | 649 ft | 144 kts | 318° |
| 2026-05-04 01:12 | 36.94507 | -122.34461 | 647 ft | 144 kts | 318° |
| 2026-05-04 01:12 | 36.95274 | -122.35278 | 649 ft | 145 kts | 318° |
| 2026-05-04 01:12 | 36.96046 | -122.36091 | 640 ft | 145 kts | 318° |
| 2026-05-04 01:12 | 36.96814 | -122.36914 | 641 ft | 145 kts | 318° |
| 2026-05-04 01:13 | 36.97579 | -122.37741 | 640 ft | 147 kts | 318° |
| 2026-05-04 01:13 | 36.98333 | -122.38553 | 640 ft | 145 kts | 318° |
| 2026-05-04 01:13 | 36.99099 | -122.39374 | 638 ft | 147 kts | 318° |
| 2026-05-04 01:13 | 36.99875 | -122.40194 | 643 ft | 145 kts | 318° |
| 2026-05-04 01:14 | 37.00644 | -122.41012 | 700 ft | 143 kts | 318° |
| 2026-05-04 01:14 | 37.01416 | -122.41824 | 688 ft | 146 kts | 318° |
| 2026-05-04 01:14 | 37.02189 | -122.42645 | 685 ft | 145 kts | 318° |
| 2026-05-04 01:14 | 37.02961 | -122.43469 | 685 ft | 146 kts | 318° |
| 2026-05-04 01:15 | 37.03734 | -122.44288 | 681 ft | 147 kts | 318° |
| 2026-05-04 01:15 | 37.04506 | -122.45105 | 684 ft | 148 kts | 318° |
| 2026-05-04 01:15 | 37.05285 | -122.45937 | 684 ft | 148 kts | 318° |
| 2026-05-04 01:15 | 37.06070 | -122.46772 | 681 ft | 146 kts | 318° |
| 2026-05-04 01:16 | 37.06856 | -122.47596 | 683 ft | 148 kts | 318° |
| 2026-05-04 01:16 | 37.07636 | -122.48416 | 686 ft | 147 kts | 318° |
| 2026-05-04 01:16 | 37.08417 | -122.49245 | 673 ft | 149 kts | 318° |
| 2026-05-04 01:16 | 37.09195 | -122.50075 | 677 ft | 147 kts | 318° |
| 2026-05-04 01:17 | 37.09969 | -122.50913 | 677 ft | 147 kts | 318° |
| 2026-05-04 01:17 | 37.10741 | -122.51744 | 677 ft | 147 kts | 318° |
| 2026-05-04 01:17 | 37.11524 | -122.52575 | 674 ft | 148 kts | 318° |
| 2026-05-04 01:17 | 37.12315 | -122.53409 | 674 ft | 150 kts | 319° |
| 2026-05-04 01:18 | 37.13102 | -122.54251 | 675 ft | 149 kts | 318° |
| 2026-05-04 01:18 | 37.13881 | -122.55081 | 676 ft | 146 kts | 319° |
| 2026-05-04 01:18 | 37.14669 | -122.55914 | 672 ft | 147 kts | 319° |
| 2026-05-04 01:18 | 37.15457 | -122.56742 | 671 ft | 147 kts | 319° |
| 2026-05-04 01:19 | 37.16238 | -122.57570 | 673 ft | 146 kts | 319° |
| 2026-05-04 01:19 | 37.17017 | -122.58399 | 674 ft | 147 kts | 319° |
| 2026-05-04 01:19 | 37.17889 | -122.58958 | 682 ft | 140 kts | 354° |
| 2026-05-04 01:19 | 37.18846 | -122.58946 | 681 ft | 139 kts | 31° |
| 2026-05-04 01:20 | 37.19739 | -122.58284 | 667 ft | 162 kts | 37° |
| 2026-05-04 01:20 | 37.20605 | -122.57468 | 672 ft | 155 kts | 37° |
| 2026-05-04 01:20 | 37.21478 | -122.56648 | 669 ft | 160 kts | 37° |
| 2026-05-04 01:20 | 37.22378 | -122.55866 | 668 ft | 155 kts | 25° |
| 2026-05-04 01:21 | 37.23356 | -122.55258 | 665 ft | 158 kts | 24° |
| 2026-05-04 01:21 | 37.24345 | -122.54686 | 668 ft | 158 kts | 24° |
| 2026-05-04 01:21 | 37.25330 | -122.54113 | 672 ft | 155 kts | 24° |
| 2026-05-04 01:21 | 37.26327 | -122.53547 | 669 ft | 156 kts | 24° |
| 2026-05-04 01:22 | 37.27302 | -122.52967 | 677 ft | 155 kts | 25° |
| 2026-05-04 01:22 | 37.28272 | -122.52379 | 676 ft | 155 kts | 25° |
| 2026-05-04 01:22 | 37.29250 | -122.51795 | 677 ft | 154 kts | 25° |
| 2026-05-04 01:22 | 37.30236 | -122.51211 | 675 ft | 154 kts | 25° |
| 2026-05-04 01:23 | 37.31207 | -122.50639 | 676 ft | 155 kts | 25° |
| 2026-05-04 01:23 | 37.32182 | -122.50056 | 680 ft | 154 kts | 25° |
| 2026-05-04 01:23 | 37.33160 | -122.49466 | 679 ft | 158 kts | 25° |
| 2026-05-04 01:23 | 37.34137 | -122.48888 | 677 ft | 158 kts | 25° |
| 2026-05-04 01:24 | 37.35125 | -122.48299 | 676 ft | 159 kts | 25° |
| 2026-05-04 01:24 | 37.36111 | -122.47721 | 677 ft | 156 kts | 25° |
| 2026-05-04 01:24 | 37.37074 | -122.47152 | 679 ft | 157 kts | 25° |
| 2026-05-04 01:24 | 37.38067 | -122.46567 | 682 ft | 158 kts | 25° |
| 2026-05-04 01:25 | 37.39054 | -122.45983 | 684 ft | 154 kts | 25° |
| 2026-05-04 01:25 | 37.40040 | -122.45430 | 683 ft | 156 kts | 21° |
| 2026-05-04 01:25 | 37.41061 | -122.44922 | 683 ft | 157 kts | 21° |
| 2026-05-04 01:25 | 37.42061 | -122.44418 | 687 ft | 154 kts | 21° |
| 2026-05-04 01:26 | 37.43067 | -122.43925 | 682 ft | 158 kts | 21° |
| 2026-05-04 01:26 | 37.44104 | -122.43415 | 682 ft | 158 kts | 21° |
| 2026-05-04 01:26 | 37.45111 | -122.42935 | 689 ft | 151 kts | 21° |
| 2026-05-04 01:26 | 37.46044 | -122.42483 | 635 ft | 134 kts | 21° |
| 2026-05-04 01:27 | 37.46842 | -122.42031 | 930 ft | 121 kts | 24° |
| 2026-05-04 01:27 | 37.47673 | -122.41553 | 1192 ft | 142 kts | 23° |
| 2026-05-04 01:27 | 37.48623 | -122.41046 | 1339 ft | 154 kts | 21° |
| 2026-05-04 01:27 | 37.49593 | -122.40585 | 1634 ft | 143 kts | 19° |
| 2026-05-04 01:28 | 37.50512 | -122.40146 | 1916 ft | 142 kts | 24° |
| 2026-05-04 01:28 | 37.51322 | -122.39572 | 1629 ft | 125 kts | 29° |
| 2026-05-04 01:28 | 37.51981 | -122.38978 | 1717 ft | 111 kts | 45° |
| 2026-05-04 01:28 | 37.52400 | -122.38597 | 1700 ft | 119 kts | 30° |
| 2026-05-04 01:29 | 37.53407 | -122.38148 | 1538 ft | 113 kts | 19° |
| 2026-05-04 01:29 | 37.54053 | -122.37816 | 1680 ft | 97 kts | 8° |
| 2026-05-04 01:29 | 37.54708 | -122.37765 | 1589 ft | 88 kts | 5° |
| 2026-05-04 01:29 | 37.55270 | -122.37639 | 1566 ft | 76 kts | 4° |
| 2026-05-04 01:30 | 37.55757 | -122.37583 | 1475 ft | 65 kts | 1° |
| 2026-05-04 01:30 | 37.56187 | -122.37505 | 1301 ft | 60 kts | 4° |
| 2026-05-04 01:30 | 37.56447 | -122.37420 | 1204 ft | 57 kts | 6° |
| 2026-05-04 01:30 | 37.56845 | -122.37384 | 1360 ft | 64 kts | 2° |
| 2026-05-04 01:31 | 37.57347 | -122.37414 | 1778 ft | 83 kts | 358° |
| 2026-05-04 01:31 | 37.58171 | -122.37294 | 1383 ft | 91 kts | 3° |
| 2026-05-04 01:31 | 37.58709 | -122.37220 | 1022 ft | 68 kts | 4° |
| 2026-05-04 01:31 | 37.59127 | -122.36990 | 884 ft | 63 kts | 20° |
| 2026-05-04 01:32 | 37.59371 | -122.36915 | 824 ft | 46 kts | 25° |
| 2026-05-04 01:32 | 37.59578 | -122.36720 | 707 ft | 38 kts | 76° |
| 2026-05-04 01:32 | 37.59681 | -122.36328 | 594 ft | 55 kts | 90° |
| 2026-05-04 01:32 | 37.59729 | -122.35802 | 744 ft | 66 kts | 94° |
| 2026-05-04 01:33 | 37.59850 | -122.35149 | 936 ft | 90 kts | 61° |
| 2026-05-04 01:33 | 37.60345 | -122.34545 | 1069 ft | 110 kts | 29° |
| 2026-05-04 01:33 | 37.61351 | -122.34084 | 1088 ft | 114 kts | 332° |
| 2026-05-04 01:33 | 37.61694 | -122.34338 | 1156 ft | 72 kts | 249° |
| 2026-05-04 01:34 | 37.61480 | -122.34983 | 515 ft | 87 kts | 246° |
| 2026-05-04 01:34 | 37.61293 | -122.35498 | 326 ft | 44 kts | 290° |
| 2026-05-04 01:34 | 37.61378 | -122.35764 | 96 ft | 28 kts | 294° |
| 2026-05-04 01:34 | 37.61462 | -122.35909 | 44 ft | 15 kts | 295° |
| 2026-05-04 01:35 | 37.61571 | -122.35902 | 29 ft | 12 kts | 300° |
| 2026-05-04 01:35 | 37.61616 | -122.35986 | 33 ft | 17 kts | 298° |
| 2026-05-04 01:35 | 37.61661 | -122.36080 | 21 ft | 8 kts | 298° |
| 2026-05-04 01:35 | 37.61686 | -122.36131 | 20 ft | 6 kts | 299° |
| 2026-05-04 01:36 | 37.61710 | -122.36196 | 20 ft | 11 kts | 301° |
| 2026-05-04 01:36 | 37.61752 | -122.36295 | 16 ft | 12 kts | 298° |
| 2026-05-04 01:36 | 37.61799 | -122.36387 | 33 ft | 18 kts | 298° |
| 2026-05-04 01:36 | 37.61920 | -122.36688 | 74 ft | 59 kts | 294° |
| 2026-05-04 01:37 | 37.62162 | -122.37264 | 106 ft | 90 kts | 292° |
| 2026-05-04 01:37 | 37.62422 | -122.37868 | 49 ft | 65 kts | 290° |
| 2026-05-04 01:37 | 37.62594 | -122.38292 | 44 ft | 44 kts | 291° |
| 2026-05-04 01:37 | 37.62709 | -122.38567 | 27 ft | 24 kts | 296° |
| 2026-05-04 01:38 | 37.62746 | -122.38655 | 28 ft | 6 kts | 297° |
| 2026-05-04 01:38 | 37.62772 | -122.38721 | 31 ft | 15 kts | 299° |
| 2026-05-04 01:38 | 37.62835 | -122.38874 | 31 ft | 18 kts | 297° |
| 2026-05-04 01:38 | 37.62886 | -122.38995 | 30 ft | 14 kts | 296° |
| 2026-05-04 01:39 | 37.62938 | -122.39116 | 38 ft | 23 kts | 296° |
| 2026-05-04 01:39 | 37.63098 | -122.39257 | 30 ft | 21 kts | 25° |
| 2026-05-04 01:39 | 37.63145 | -122.39236 | 27 ft | 5 kts | 60° |
| 2026-05-04 01:39 | 37.63179 | -122.39129 | 35 ft | 19 kts | 69° |
| 2026-05-04 01:40 | 37.63236 | -122.38951 | 28 ft | 18 kts | 25° |
| 2026-05-04 01:40 | 37.63286 | -122.38929 | 19 ft | 7 kts | 91° |
| 2026-05-04 01:40 | 37.63286 | -122.38919 | 9 ft | 0 kts | 94° |